Time,TemperatureF,DewpointF,PressureIn,WindDirection,WindDirectionDegrees,WindSpeedMPH,WindSpeedGustMPH,Humidity,HourlyPrecipIn,Conditions,Clouds,dailyrainin,SoftwareType,DateUTC
2013-05-23 00:00:00,43.9,38.8,29.82,North,357,0.0,5.8,82,0.12,,---,0.00,VWS V14.01,2013-05-23 06:00:00,
2013-05-23 00:01:00,43.7,38.6,29.82,NE,49,0.0,0.0,82,0.08,,---,0.00,VWS V14.01,2013-05-23 06:01:00,
2013-05-23 00:02:00,43.5,38.4,29.82,East,92,2.2,2.7,82,0.08,,---,0.00,VWS V14.01,2013-05-23 06:02:00,
2013-05-23 00:05:00,43.0,37.6,29.82,NNE,21,0.0,3.1,81,0.08,,---,0.00,VWS V14.01,2013-05-23 06:05:00,
2013-05-23 00:06:00,43.0,37.6,29.82,WNW,282,3.1,3.1,81,0.08,,---,0.00,VWS V14.01,2013-05-23 06:06:00,
2013-05-23 00:07:00,42.8,37.4,29.82,West,281,0.0,3.1,81,0.12,,---,0.04,VWS V14.01,2013-05-23 06:07:00,
2013-05-23 00:10:00,42.8,37.7,29.82,SW,227,0.0,3.6,82,0.12,,---,0.04,VWS V14.01,2013-05-23 06:10:00,
2013-05-23 00:11:00,42.8,38.0,29.82,SW,227,0.0,3.6,83,0.12,,---,0.04,VWS V14.01,2013-05-23 06:11:00,
2013-05-23 00:12:00,42.8,38.0,29.82,SW,225,0.0,3.6,83,0.12,,---,0.04,VWS V14.01,2013-05-23 06:12:00,
2013-05-23 00:15:00,42.6,37.8,29.82,SW,225,0.0,3.6,83,0.12,,---,0.04,VWS V14.01,2013-05-23 06:15:00,
2013-05-23 00:16:00,42.6,37.8,29.82,SW,225,0.0,0.0,83,0.08,,---,0.04,VWS V14.01,2013-05-23 06:16:00,
2013-05-23 00:17:00,42.4,37.7,29.82,SW,225,0.0,0.0,83,0.08,,---,0.04,VWS V14.01,2013-05-23 06:17:00,
2013-05-23 00:18:00,42.4,37.7,29.82,SW,225,0.0,0.0,83,0.12,,---,0.08,VWS V14.01,2013-05-23 06:18:00,
2013-05-23 00:20:00,42.4,37.7,29.82,SW,225,0.0,0.0,83,0.12,,---,0.08,VWS V14.01,2013-05-23 06:20:00,
2013-05-23 00:21:00,42.4,38.0,29.82,SW,225,0.0,0.0,84,0.12,,---,0.08,VWS V14.01,2013-05-23 06:21:00,
2013-05-23 00:22:00,42.4,38.0,29.82,SW,225,0.0,0.0,84,0.12,,---,0.08,VWS V14.01,2013-05-23 06:22:00,
2013-05-23 00:23:00,42.4,38.0,29.82,SW,225,0.0,0.0,84,0.12,,---,0.08,VWS V14.01,2013-05-23 06:23:00,
2013-05-23 00:25:00,42.4,38.0,29.82,SSW,200,0.0,0.0,84,0.12,,---,0.08,VWS V14.01,2013-05-23 06:25:00,
2013-05-23 00:27:00,42.6,38.1,29.82,SSW,199,0.0,0.0,84,0.12,,---,0.08,VWS V14.01,2013-05-23 06:27:00,
2013-05-23 00:28:00,42.6,38.1,29.82,SSW,199,0.0,0.0,84,0.12,,---,0.08,VWS V14.01,2013-05-23 06:28:00,
2013-05-23 00:31:00,42.8,38.3,29.82,SE,146,0.0,0.0,84,0.16,,---,0.12,VWS V14.01,2013-05-23 06:31:00,
2013-05-23 00:32:00,42.8,38.3,29.82,SE,146,0.0,0.0,84,0.16,,---,0.12,VWS V14.01,2013-05-23 06:32:00,
2013-05-23 00:33:00,42.8,38.3,29.82,SE,146,0.0,0.0,84,0.16,,---,0.12,VWS V14.01,2013-05-23 06:33:00,
2013-05-23 00:36:00,42.8,38.3,29.82,SE,146,0.0,0.0,84,0.16,,---,0.12,VWS V14.01,2013-05-23 06:36:00,
2013-05-23 00:37:00,42.8,38.3,29.82,SE,146,0.0,0.0,84,0.16,,---,0.12,VWS V14.01,2013-05-23 06:37:00,
2013-05-23 00:38:00,42.8,38.3,29.82,SE,146,0.0,0.0,84,0.16,,---,0.12,VWS V14.01,2013-05-23 06:38:00,
2013-05-23 00:41:00,42.6,38.4,29.82,SE,146,0.0,0.0,85,0.16,,---,0.00,VWS V14.01,2013-05-23 06:41:00,
2013-05-23 00:43:00,42.6,38.4,29.82,SE,146,0.0,0.0,85,0.16,,---,0.12,VWS V14.01,2013-05-23 06:43:00,
2013-05-23 00:44:00,42.6,38.4,29.82,SE,146,0.0,0.0,85,0.16,,---,0.12,VWS V14.01,2013-05-23 06:44:00,
2013-05-23 00:46:00,42.6,38.4,29.82,SE,146,0.0,0.0,85,0.16,,---,0.16,VWS V14.01,2013-05-23 06:46:00,
2013-05-23 00:47:00,42.4,38.3,29.82,SE,146,0.0,0.0,85,0.16,,---,0.16,VWS V14.01,2013-05-23 06:47:00,
2013-05-23 00:48:00,42.4,38.3,29.82,SE,146,0.0,0.0,85,0.16,,---,0.00,VWS V14.01,2013-05-23 06:48:00,
2013-05-23 00:49:00,42.4,38.3,29.82,SE,146,0.0,0.0,85,0.16,,---,0.16,VWS V14.01,2013-05-23 06:49:00,
2013-05-23 00:51:00,42.4,38.3,29.82,SE,146,0.0,0.0,85,0.16,,---,0.16,VWS V14.01,2013-05-23 06:51:00,
2013-05-23 00:52:00,42.4,38.3,29.82,SE,146,0.0,0.0,85,0.16,,---,0.16,VWS V14.01,2013-05-23 06:52:00,
2013-05-23 00:53:00,42.4,38.3,29.82,SE,146,0.0,0.0,85,0.16,,---,0.16,VWS V14.01,2013-05-23 06:53:00,
2013-05-23 00:54:00,42.4,38.3,29.82,SE,146,0.0,0.0,85,0.16,,---,0.16,VWS V14.01,2013-05-23 06:54:00,
2013-05-23 00:56:00,42.3,38.1,29.82,SE,146,0.0,0.0,85,0.16,,---,0.00,VWS V14.01,2013-05-23 06:56:00,
2013-05-23 00:57:00,42.3,38.1,29.82,SE,146,0.0,0.0,85,0.16,,---,0.16,VWS V14.01,2013-05-23 06:57:00,
2013-05-23 00:58:00,42.3,38.1,29.82,SE,146,0.0,0.0,85,0.16,,---,0.16,VWS V14.01,2013-05-23 06:58:00,
2013-05-23 00:59:00,42.3,38.1,29.82,SE,146,0.0,0.0,85,0.16,,---,0.16,VWS V14.01,2013-05-23 06:59:00,
2013-05-23 01:02:00,42.3,38.1,29.82,SE,146,0.0,0.0,85,0.16,,---,0.00,VWS V14.01,2013-05-23 07:02:00,
2013-05-23 01:03:00,42.3,38.1,29.82,SE,146,0.0,0.0,85,0.16,,---,0.16,VWS V14.01,2013-05-23 07:03:00,
2013-05-23 01:04:00,42.4,38.3,29.82,SE,146,0.0,0.0,85,0.16,,---,0.16,VWS V14.01,2013-05-23 07:04:00,
2013-05-23 01:07:00,42.4,38.6,29.82,SE,146,0.0,0.0,86,0.16,,---,0.16,VWS V14.01,2013-05-23 07:07:00,
2013-05-23 01:08:00,42.4,38.6,29.82,SSE,151,0.0,0.0,86,0.16,,---,0.16,VWS V14.01,2013-05-23 07:08:00,
2013-05-23 01:09:00,42.4,38.6,29.82,SSE,155,0.0,0.0,86,0.16,,---,0.00,VWS V14.01,2013-05-23 07:09:00,
2013-05-23 01:10:00,42.4,38.6,29.82,SSE,167,0.0,0.0,86,0.16,,---,0.16,VWS V14.01,2013-05-23 07:10:00,
2013-05-23 01:12:00,42.4,38.6,29.82,SSE,168,0.0,0.0,86,0.16,,---,0.16,VWS V14.01,2013-05-23 07:12:00,
2013-05-23 01:13:00,42.4,38.8,29.82,SSW,193,0.0,0.0,87,0.16,,---,0.16,VWS V14.01,2013-05-23 07:13:00,
2013-05-23 01:14:00,42.4,38.8,29.82,SSW,194,0.0,0.0,87,0.20,,---,0.20,VWS V14.01,2013-05-23 07:14:00,
2013-05-23 01:15:00,42.6,39.0,29.82,SSW,194,0.0,0.0,87,0.20,,---,0.20,VWS V14.01,2013-05-23 07:15:00,
2013-05-23 01:17:00,42.6,39.3,29.85,SSW,195,0.0,0.0,88,0.16,,---,0.20,VWS V14.01,2013-05-23 07:17:00,
2013-05-23 01:18:00,42.6,39.3,29.85,SSW,194,0.0,0.0,88,0.16,,---,0.20,VWS V14.01,2013-05-23 07:18:00,
2013-05-23 01:19:00,42.6,39.3,29.85,SSW,195,0.0,0.0,88,0.16,,---,0.00,VWS V14.01,2013-05-23 07:19:00,
2013-05-23 01:20:00,42.6,39.3,29.85,SSW,195,0.0,0.0,88,0.16,,---,0.20,VWS V14.01,2013-05-23 07:20:00,
2013-05-23 01:22:00,42.6,39.3,29.85,SSW,194,4.0,4.5,88,0.16,,---,0.00,VWS V14.01,2013-05-23 07:22:00,
2013-05-23 01:23:00,42.6,39.3,29.85,SSW,195,2.2,4.5,88,0.16,,---,0.00,VWS V14.01,2013-05-23 07:23:00,
2013-05-23 01:24:00,42.4,39.1,29.85,SSW,195,0.0,4.5,88,0.16,,---,0.00,VWS V14.01,2013-05-23 07:24:00,
2013-05-23 01:25:00,42.4,39.1,29.85,South,190,3.1,4.5,88,0.16,,---,0.20,VWS V14.01,2013-05-23 07:25:00,
2013-05-23 01:26:00,42.3,39.0,29.85,SSW,195,2.7,4.5,88,0.16,,---,0.20,VWS V14.01,2013-05-23 07:26:00,
2013-05-23 01:27:00,42.3,39.0,29.85,SSW,192,3.6,4.5,88,0.16,,---,0.20,VWS V14.01,2013-05-23 07:27:00,
2013-05-23 01:29:00,42.1,38.8,29.85,SSW,192,2.2,4.5,88,0.16,,---,0.20,VWS V14.01,2013-05-23 07:29:00,
2013-05-23 01:30:00,42.1,38.8,29.85,SSW,192,0.0,4.5,88,0.20,,---,0.24,VWS V14.01,2013-05-23 07:30:00,
2013-05-23 01:31:00,42.1,38.8,29.85,SSW,192,0.0,0.0,88,0.16,,---,0.24,VWS V14.01,2013-05-23 07:31:00,
2013-05-23 01:32:00,41.9,38.6,29.82,SSW,192,0.0,0.0,88,0.16,,---,0.24,VWS V14.01,2013-05-23 07:32:00,
2013-05-23 01:34:00,41.9,38.6,29.82,SSW,192,0.0,0.0,88,0.16,,---,0.24,VWS V14.01,2013-05-23 07:34:00,
2013-05-23 01:35:00,41.7,38.4,29.82,SSW,192,0.0,0.0,88,0.16,,---,0.24,VWS V14.01,2013-05-23 07:35:00,
2013-05-23 01:36:00,41.7,38.4,29.82,SSW,193,2.7,2.7,88,0.16,,---,0.24,VWS V14.01,2013-05-23 07:36:00,
2013-05-23 01:37:00,41.7,38.4,29.82,South,187,2.2,3.6,88,0.16,,---,0.24,VWS V14.01,2013-05-23 07:37:00,
2013-05-23 01:39:00,41.5,38.3,29.82,South,187,3.1,3.6,88,0.16,,---,0.24,VWS V14.01,2013-05-23 07:39:00,
2013-05-23 01:40:00,41.5,38.3,29.82,South,187,2.2,3.6,88,0.16,,---,0.24,VWS V14.01,2013-05-23 07:40:00,
2013-05-23 01:41:00,41.4,38.1,29.82,South,187,0.0,3.6,88,0.16,,---,0.00,VWS V14.01,2013-05-23 07:41:00,
2013-05-23 01:43:00,41.2,37.6,29.82,South,187,0.0,3.6,87,0.16,,---,0.00,VWS V14.01,2013-05-23 07:43:00,
2013-05-23 01:44:00,41.0,37.4,29.82,South,187,0.0,3.6,87,0.16,,---,0.24,VWS V14.01,2013-05-23 07:44:00,
2013-05-23 01:46:00,41.0,37.4,29.82,SSW,195,0.0,3.1,87,0.12,,---,0.24,VWS V14.01,2013-05-23 07:46:00,
2013-05-23 01:47:00,41.0,37.4,29.82,SSW,197,2.7,4.0,87,0.12,,---,0.00,VWS V14.01,2013-05-23 07:47:00,
2013-05-23 01:48:00,41.0,37.7,29.82,SSW,201,0.0,4.0,88,0.12,,---,0.24,VWS V14.01,2013-05-23 07:48:00,
2013-05-23 01:49:00,40.8,37.5,29.82,SSW,201,0.0,4.0,88,0.12,,---,0.00,VWS V14.01,2013-05-23 07:49:00,
2013-05-23 01:57:00,40.8,37.5,29.82,SSW,200,0.0,4.0,88,0.16,,---,0.28,VWS V14.01,2013-05-23 07:57:00,
2013-05-23 02:02:00,40.8,37.5,29.82,SSW,200,3.6,3.6,88,0.12,,---,0.00,VWS V14.01,2013-05-23 08:02:00,
2013-05-23 02:03:00,40.8,37.5,29.82,SSW,200,2.7,3.6,88,0.12,,---,0.00,VWS V14.01,2013-05-23 08:03:00,
2013-05-23 02:07:00,40.8,37.8,29.82,SSW,200,2.2,3.6,89,0.12,,---,0.00,VWS V14.01,2013-05-23 08:07:00,
2013-05-23 02:08:00,40.8,37.8,29.82,SSW,200,2.7,3.6,89,0.12,,---,0.00,VWS V14.01,2013-05-23 08:08:00,
2013-05-23 02:12:00,40.6,37.7,29.82,SSW,200,2.2,3.6,89,0.12,,---,0.00,VWS V14.01,2013-05-23 08:12:00,
2013-05-23 02:13:00,40.6,37.7,29.82,SSW,200,3.1,3.6,89,0.12,,---,0.28,VWS V14.01,2013-05-23 08:13:00,
2013-05-23 02:17:00,40.6,37.9,29.82,SSW,194,4.9,5.4,90,0.08,,---,0.28,VWS V14.01,2013-05-23 08:17:00,
2013-05-23 02:18:00,40.6,37.9,29.82,SSW,203,2.7,5.4,90,0.08,,---,0.28,VWS V14.01,2013-05-23 08:18:00,
2013-05-23 02:22:00,40.8,38.1,29.82,SSW,198,3.6,5.4,90,0.08,,---,0.28,VWS V14.01,2013-05-23 08:22:00,
2013-05-23 02:23:00,40.8,38.4,29.82,SSW,197,5.8,5.8,91,0.08,,---,0.28,VWS V14.01,2013-05-23 08:23:00,
2013-05-23 02:27:00,40.8,38.4,29.82,SSW,200,6.3,7.6,91,0.12,,---,0.00,VWS V14.01,2013-05-23 08:27:00,
2013-05-23 02:28:00,40.8,38.4,29.82,SSW,194,7.6,7.6,91,0.12,,---,0.31,VWS V14.01,2013-05-23 08:28:00,
2013-05-23 02:29:00,40.8,38.4,29.82,SSW,202,4.9,7.6,91,0.12,,---,0.31,VWS V14.01,2013-05-23 08:29:00,
2013-05-23 02:33:00,40.8,38.4,29.85,South,188,3.1,4.5,91,0.08,,---,0.31,VWS V14.01,2013-05-23 08:33:00,
2013-05-23 02:34:00,40.8,38.4,29.85,SSW,197,4.0,4.5,91,0.08,,---,0.31,VWS V14.01,2013-05-23 08:34:00,
2013-05-23 02:38:00,40.6,38.2,29.85,SSW,193,3.1,4.5,91,0.08,,---,0.31,VWS V14.01,2013-05-23 08:38:00,
2013-05-23 02:39:00,40.6,38.2,29.85,SSW,193,3.1,4.5,91,0.08,,---,0.31,VWS V14.01,2013-05-23 08:39:00,
2013-05-23 02:40:00,40.6,38.2,29.85,SSW,194,2.7,4.5,91,0.08,,---,0.31,VWS V14.01,2013-05-23 08:40:00,
2013-05-23 02:43:00,40.6,38.2,29.85,South,183,2.7,4.5,91,0.08,,---,0.31,VWS V14.01,2013-05-23 08:43:00,
2013-05-23 02:45:00,40.6,38.2,29.85,SSW,193,3.6,4.5,91,0.08,,---,0.31,VWS V14.01,2013-05-23 08:45:00,
2013-05-23 02:48:00,40.5,38.0,29.82,SSW,197,4.9,4.9,91,0.12,,---,0.35,VWS V14.01,2013-05-23 08:48:00,
2013-05-23 02:49:00,40.5,38.0,29.82,SSW,197,4.9,4.9,91,0.12,,---,0.35,VWS V14.01,2013-05-23 08:49:00,
2013-05-23 02:50:00,40.3,37.9,29.82,SSW,199,5.4,5.8,91,0.12,,---,0.35,VWS V14.01,2013-05-23 08:50:00,
2013-05-23 02:54:00,40.1,37.7,29.82,SSW,196,4.0,5.8,91,0.12,,---,0.00,VWS V14.01,2013-05-23 08:54:00,
2013-05-23 02:55:00,40.1,37.7,29.82,SSW,198,3.1,5.8,91,0.12,,---,0.35,VWS V14.01,2013-05-23 08:55:00,
2013-05-23 02:59:00,39.9,37.5,29.82,SSW,207,3.6,5.8,91,0.12,,---,0.35,VWS V14.01,2013-05-23 08:59:00,
2013-05-23 03:00:00,39.9,37.5,29.82,SSW,204,3.6,5.8,91,0.12,,---,0.35,VWS V14.01,2013-05-23 09:00:00,
2013-05-23 03:04:00,39.9,37.5,29.85,South,191,0.0,4.5,91,0.08,,---,0.35,VWS V14.01,2013-05-23 09:04:00,
2013-05-23 03:05:00,39.9,37.5,29.85,South,191,0.0,4.5,91,0.08,,---,0.35,VWS V14.01,2013-05-23 09:05:00,
2013-05-23 03:09:00,39.9,37.5,29.85,South,185,0.0,4.5,91,0.08,,---,0.35,VWS V14.01,2013-05-23 09:09:00,
2013-05-23 03:10:00,39.9,37.5,29.85,South,185,0.0,4.5,91,0.08,,---,0.35,VWS V14.01,2013-05-23 09:10:00,
2013-05-23 03:14:00,39.9,37.5,29.85,South,185,0.0,4.5,91,0.08,,---,0.35,VWS V14.01,2013-05-23 09:14:00,
2013-05-23 03:15:00,39.9,37.5,29.85,South,185,0.0,4.5,91,0.08,,---,0.35,VWS V14.01,2013-05-23 09:15:00,
2013-05-23 03:16:00,39.9,37.5,29.85,South,185,0.0,0.0,91,0.08,,---,0.35,VWS V14.01,2013-05-23 09:16:00,
2013-05-23 03:20:00,39.9,37.5,29.82,South,185,0.0,2.7,91,0.08,,---,0.35,VWS V14.01,2013-05-23 09:20:00,
2013-05-23 03:21:00,39.9,37.5,29.82,South,185,0.0,2.7,91,0.08,,---,0.35,VWS V14.01,2013-05-23 09:21:00,
2013-05-23 03:25:00,39.9,37.5,29.82,South,190,0.0,2.7,91,0.12,,---,0.00,VWS V14.01,2013-05-23 09:25:00,
2013-05-23 03:26:00,39.9,37.5,29.82,South,188,2.7,2.7,91,0.12,,---,0.39,VWS V14.01,2013-05-23 09:26:00,
2013-05-23 03:30:00,39.7,37.3,29.82,South,189,2.7,3.6,91,0.12,,---,0.39,VWS V14.01,2013-05-23 09:30:00,
2013-05-23 03:31:00,39.7,37.3,29.82,South,189,2.7,2.7,91,0.08,,---,0.39,VWS V14.01,2013-05-23 09:31:00,
2013-05-23 03:35:00,39.7,37.6,29.82,SSW,198,4.0,4.9,92,0.08,,---,0.39,VWS V14.01,2013-05-23 09:35:00,
2013-05-23 03:36:00,39.7,37.6,29.82,SSW,196,4.0,6.3,92,0.08,,---,0.39,VWS V14.01,2013-05-23 09:36:00,
2013-05-23 03:40:00,39.7,37.6,29.82,SSW,205,3.1,6.3,92,0.08,,---,0.39,VWS V14.01,2013-05-23 09:40:00,
2013-05-23 03:41:00,39.7,37.6,29.82,SSW,205,3.6,6.3,92,0.08,,---,0.39,VWS V14.01,2013-05-23 09:41:00,
2013-05-23 03:42:00,39.7,37.6,29.82,SSW,205,3.6,6.3,92,0.08,,---,0.39,VWS V14.01,2013-05-23 09:42:00,
2013-05-23 03:45:00,39.7,37.6,29.82,SSW,192,4.0,4.0,92,0.08,,---,0.39,VWS V14.01,2013-05-23 09:45:00,
2013-05-23 03:46:00,39.7,37.6,29.82,SSW,196,3.6,4.5,92,0.08,,---,0.39,VWS V14.01,2013-05-23 09:46:00,
2013-05-23 03:47:00,39.7,37.6,29.85,SSW,196,3.6,4.5,92,0.08,,---,0.39,VWS V14.01,2013-05-23 09:47:00,
2013-05-23 03:50:00,39.7,37.6,29.85,SSW,196,2.2,4.5,92,0.08,,---,0.39,VWS V14.01,2013-05-23 09:50:00,
2013-05-23 03:51:00,39.7,37.6,29.85,SSW,196,0.0,4.5,92,0.08,,---,0.39,VWS V14.01,2013-05-23 09:51:00,
2013-05-23 03:52:00,39.7,37.6,29.85,SSW,196,2.2,4.5,92,0.08,,---,0.39,VWS V14.01,2013-05-23 09:52:00,
2013-05-23 03:55:00,39.6,37.4,29.85,SSW,195,3.1,4.5,92,0.08,,---,0.39,VWS V14.01,2013-05-23 09:55:00,
2013-05-23 03:56:00,39.6,37.4,29.85,SSW,195,2.7,4.5,92,0.08,,---,0.39,VWS V14.01,2013-05-23 09:56:00,
2013-05-23 03:57:00,39.6,37.4,29.85,SSW,192,2.7,4.5,92,0.08,,---,0.39,VWS V14.01,2013-05-23 09:57:00,
2013-05-23 04:01:00,39.4,37.2,29.82,SSW,194,3.1,4.0,92,0.04,,---,0.00,VWS V14.01,2013-05-23 10:01:00,
2013-05-23 04:02:00,39.4,37.2,29.82,SSW,195,3.6,4.0,92,0.04,,---,0.39,VWS V14.01,2013-05-23 10:02:00,
2013-05-23 04:06:00,39.2,37.1,29.82,SSW,197,2.7,4.0,92,0.04,,---,0.39,VWS V14.01,2013-05-23 10:06:00,
2013-05-23 04:07:00,39.2,37.1,29.82,SSW,201,2.7,4.0,92,0.04,,---,0.39,VWS V14.01,2013-05-23 10:07:00,
2013-05-23 04:11:00,39.2,37.1,29.82,SSW,195,2.7,4.0,92,0.04,,---,0.39,VWS V14.01,2013-05-23 10:11:00,
2013-05-23 04:12:00,39.2,37.1,29.82,SSW,197,4.0,4.0,92,0.04,,---,0.39,VWS V14.01,2013-05-23 10:12:00,
2013-05-23 04:17:00,39.0,36.9,29.82,SSW,197,2.2,3.1,92,0.04,,---,0.39,VWS V14.01,2013-05-23 10:17:00,
2013-05-23 04:18:00,39.0,36.9,29.82,SSW,199,2.7,3.1,92,0.04,,---,0.39,VWS V14.01,2013-05-23 10:18:00,
2013-05-23 04:22:00,39.0,36.9,29.82,SSW,202,0.0,3.1,92,0.08,,---,0.43,VWS V14.01,2013-05-23 10:22:00,
2013-05-23 04:23:00,39.0,36.9,29.82,SSW,202,0.0,3.1,92,0.08,,---,0.43,VWS V14.01,2013-05-23 10:23:00,
2013-05-23 04:27:00,39.0,36.9,29.82,SSW,202,0.0,3.1,92,0.08,,---,0.43,VWS V14.01,2013-05-23 10:27:00,
2013-05-23 04:28:00,39.0,36.9,29.82,SSW,202,0.0,3.1,92,0.08,,---,0.43,VWS V14.01,2013-05-23 10:28:00,
2013-05-23 04:32:00,39.0,37.2,29.82,SSW,202,0.0,2.2,93,0.04,,---,0.43,VWS V14.01,2013-05-23 10:32:00,
2013-05-23 04:33:00,39.0,37.2,29.82,SSW,202,2.2,2.2,93,0.04,,---,0.43,VWS V14.01,2013-05-23 10:33:00,
2013-05-23 04:34:00,39.0,37.2,29.82,SSW,202,2.7,2.7,93,0.04,,---,0.43,VWS V14.01,2013-05-23 10:34:00,
2013-05-23 04:37:00,39.0,37.2,29.82,SSW,202,0.0,2.7,93,0.04,,---,0.43,VWS V14.01,2013-05-23 10:37:00,
2013-05-23 04:38:00,39.0,37.2,29.82,SSW,202,0.0,2.7,93,0.04,,---,0.43,VWS V14.01,2013-05-23 10:38:00,
2013-05-23 04:39:00,38.8,37.0,29.82,SSW,202,0.0,2.7,93,0.04,,---,0.43,VWS V14.01,2013-05-23 10:39:00,
2013-05-23 04:42:00,38.8,37.0,29.82,SSW,202,2.2,2.7,93,0.04,,---,0.43,VWS V14.01,2013-05-23 10:42:00,
2013-05-23 04:43:00,38.8,37.0,29.82,SSW,202,0.0,2.7,93,0.04,,---,0.43,VWS V14.01,2013-05-23 10:43:00,
2013-05-23 04:44:00,38.8,37.0,29.82,SSW,202,0.0,2.7,93,0.04,,---,0.43,VWS V14.01,2013-05-23 10:44:00,
2013-05-23 04:48:00,38.7,36.8,29.82,SSW,202,0.0,0.0,93,0.04,,---,0.43,VWS V14.01,2013-05-23 10:48:00,
2013-05-23 04:49:00,38.7,36.8,29.82,SSW,202,0.0,0.0,93,0.04,,---,0.43,VWS V14.01,2013-05-23 10:49:00,
2013-05-23 04:53:00,38.7,36.8,29.82,SSW,202,0.0,0.0,93,0.04,,---,0.43,VWS V14.01,2013-05-23 10:53:00,
2013-05-23 04:54:00,38.7,36.8,29.82,SSW,202,0.0,0.0,93,0.04,,---,0.43,VWS V14.01,2013-05-23 10:54:00,
2013-05-23 04:55:00,38.7,36.8,29.82,SSW,202,0.0,0.0,93,0.04,,---,0.43,VWS V14.01,2013-05-23 10:55:00,
2013-05-23 04:58:00,38.7,36.8,29.82,SSW,202,0.0,0.0,93,0.04,,---,0.43,VWS V14.01,2013-05-23 10:58:00,
2013-05-23 04:59:00,38.7,36.8,29.82,SSW,202,0.0,0.0,93,0.04,,---,0.43,VWS V14.01,2013-05-23 10:59:00,
2013-05-23 05:00:00,38.7,36.8,29.82,SSW,202,0.0,0.0,93,0.04,,---,0.43,VWS V14.01,2013-05-23 11:00:00,
2013-05-23 05:03:00,38.7,36.8,29.82,SSW,202,0.0,0.0,93,0.04,,---,0.43,VWS V14.01,2013-05-23 11:03:00,
2013-05-23 05:04:00,38.7,36.8,29.82,SSW,202,0.0,0.0,93,0.04,,---,0.43,VWS V14.01,2013-05-23 11:04:00,
2013-05-23 05:05:00,38.7,36.8,29.82,SSW,202,0.0,0.0,93,0.04,,---,0.43,VWS V14.01,2013-05-23 11:05:00,
2013-05-23 05:08:00,38.7,36.8,29.82,SSW,202,0.0,0.0,93,0.04,,---,0.43,VWS V14.01,2013-05-23 11:08:00,
2013-05-23 05:09:00,38.7,36.8,29.82,SSW,202,0.0,0.0,93,0.04,,---,0.43,VWS V14.01,2013-05-23 11:09:00,
2013-05-23 05:10:00,38.7,36.8,29.82,SSW,202,0.0,0.0,93,0.04,,---,0.43,VWS V14.01,2013-05-23 11:10:00,
2013-05-23 05:13:00,38.7,36.8,29.82,SSW,202,0.0,0.0,93,0.04,,---,0.43,VWS V14.01,2013-05-23 11:13:00,
2013-05-23 05:14:00,38.7,36.8,29.82,SSW,202,0.0,0.0,93,0.04,,---,0.43,VWS V14.01,2013-05-23 11:14:00,
2013-05-23 05:15:00,38.7,36.8,29.82,SSW,202,0.0,0.0,93,0.04,,---,0.00,VWS V14.01,2013-05-23 11:15:00,
2013-05-23 05:19:00,38.5,36.6,29.82,SSW,202,0.0,0.0,93,0.04,,---,0.43,VWS V14.01,2013-05-23 11:19:00,
2013-05-23 05:20:00,38.5,36.6,29.82,SSW,202,0.0,0.0,93,0.04,,---,0.00,VWS V14.01,2013-05-23 11:20:00,
2013-05-23 05:21:00,38.3,36.5,29.82,SSW,202,0.0,0.0,93,0.04,,---,0.43,VWS V14.01,2013-05-23 11:21:00,
2013-05-23 05:24:00,38.1,36.3,29.82,SSW,202,0.0,0.0,93,0.08,,---,0.47,VWS V14.01,2013-05-23 11:24:00,
2013-05-23 05:25:00,38.1,36.3,29.82,SSW,202,0.0,0.0,93,0.08,,---,0.00,VWS V14.01,2013-05-23 11:25:00,
2013-05-23 05:26:00,38.1,36.3,29.82,SSW,202,0.0,0.0,93,0.08,,---,0.47,VWS V14.01,2013-05-23 11:26:00,
2013-05-23 05:29:00,38.1,36.3,29.82,SSW,202,0.0,0.0,93,0.08,,---,0.47,VWS V14.01,2013-05-23 11:29:00,
2013-05-23 05:30:00,37.9,36.1,29.82,SSW,202,0.0,0.0,93,0.08,,---,0.47,VWS V14.01,2013-05-23 11:30:00,
2013-05-23 05:31:00,37.9,36.1,29.85,SSW,202,0.0,0.0,93,0.04,,---,0.47,VWS V14.01,2013-05-23 11:31:00,
2013-05-23 05:34:00,37.9,36.1,29.85,SSW,202,0.0,0.0,93,0.04,,---,0.47,VWS V14.01,2013-05-23 11:34:00,
2013-05-23 05:35:00,37.9,36.1,29.85,SSW,202,0.0,0.0,93,0.04,,---,0.47,VWS V14.01,2013-05-23 11:35:00,
2013-05-23 05:37:00,37.9,36.1,29.85,SSW,202,0.0,0.0,93,0.04,,---,0.47,VWS V14.01,2013-05-23 11:37:00,
2013-05-23 05:40:00,37.9,36.1,29.85,SSW,202,0.0,0.0,93,0.04,,---,0.47,VWS V14.01,2013-05-23 11:40:00,
2013-05-23 05:41:00,37.9,36.1,29.85,SSW,202,0.0,0.0,93,0.04,,---,0.00,VWS V14.01,2013-05-23 11:41:00,
2013-05-23 05:42:00,37.9,36.1,29.85,SSW,202,0.0,0.0,93,0.04,,---,0.47,VWS V14.01,2013-05-23 11:42:00,
2013-05-23 05:45:00,37.9,36.1,29.85,SSW,202,0.0,0.0,93,0.04,,---,0.47,VWS V14.01,2013-05-23 11:45:00,
2013-05-23 05:46:00,37.9,36.1,29.85,SSW,202,2.2,2.2,93,0.04,,---,0.00,VWS V14.01,2013-05-23 11:46:00,
2013-05-23 05:47:00,37.8,35.9,29.85,SSW,202,0.0,2.7,93,0.04,,---,0.47,VWS V14.01,2013-05-23 11:47:00,
2013-05-23 05:50:00,37.6,35.7,29.85,SSW,202,0.0,2.7,93,0.04,,---,0.00,VWS V14.01,2013-05-23 11:50:00,
2013-05-23 05:51:00,37.6,35.7,29.85,SSW,202,0.0,2.7,93,0.04,,---,0.47,VWS V14.01,2013-05-23 11:51:00,
2013-05-23 05:52:00,37.6,35.7,29.85,SSW,202,0.0,2.7,93,0.04,,---,0.47,VWS V14.01,2013-05-23 11:52:00,
2013-05-23 05:56:00,37.6,35.7,29.85,SSW,202,0.0,2.7,93,0.04,,---,0.47,VWS V14.01,2013-05-23 11:56:00,
2013-05-23 05:57:00,37.6,35.7,29.85,SSW,202,0.0,2.7,93,0.04,,---,0.47,VWS V14.01,2013-05-23 11:57:00,
2013-05-23 06:01:00,37.6,35.7,29.82,SSW,202,0.0,0.0,93,0.04,,---,0.47,VWS V14.01,2013-05-23 12:01:00,
2013-05-23 06:02:00,37.6,35.7,29.82,SSW,202,0.0,0.0,93,0.04,,---,0.47,VWS V14.01,2013-05-23 12:02:00,
2013-05-23 06:03:00,37.6,35.7,29.82,SSW,202,0.0,0.0,93,0.04,,---,0.47,VWS V14.01,2013-05-23 12:03:00,
2013-05-23 06:06:00,37.6,35.7,29.82,SSW,202,0.0,2.7,93,0.04,,---,0.47,VWS V14.01,2013-05-23 12:06:00,
2013-05-23 06:07:00,37.6,35.7,29.82,SSW,202,0.0,2.7,93,0.04,,---,0.47,VWS V14.01,2013-05-23 12:07:00,
2013-05-23 06:08:00,37.6,35.7,29.82,SSW,202,0.0,2.7,93,0.04,,---,0.47,VWS V14.01,2013-05-23 12:08:00,
2013-05-23 06:12:00,37.4,35.6,29.82,SSW,202,0.0,2.7,93,0.04,,---,0.47,VWS V14.01,2013-05-23 12:12:00,
2013-05-23 06:13:00,37.4,35.6,29.82,SSW,202,2.2,2.7,93,0.04,,---,0.47,VWS V14.01,2013-05-23 12:13:00,
2013-05-23 06:17:00,37.4,35.6,29.85,SSW,202,0.0,3.1,93,0.04,,---,0.47,VWS V14.01,2013-05-23 12:17:00,
2013-05-23 06:18:00,37.4,35.6,29.85,SSW,202,0.0,3.1,93,0.04,,---,0.47,VWS V14.01,2013-05-23 12:18:00,
2013-05-23 06:22:00,37.4,35.6,29.85,SSW,202,0.0,3.1,93,0.04,,---,0.47,VWS V14.01,2013-05-23 12:22:00,
2013-05-23 06:23:00,37.4,35.6,29.85,SSW,201,0.0,3.1,93,0.04,,---,0.47,VWS V14.01,2013-05-23 12:23:00,
2013-05-23 06:27:00,37.4,35.6,29.85,SSW,201,0.0,3.1,93,0.04,,---,0.47,VWS V14.01,2013-05-23 12:27:00,
2013-05-23 06:28:00,37.4,35.6,29.85,SSW,201,0.0,3.1,93,0.04,,---,0.47,VWS V14.01,2013-05-23 12:28:00,
2013-05-23 06:29:00,37.4,35.6,29.85,SSW,201,0.0,3.1,93,0.04,,---,0.47,VWS V14.01,2013-05-23 12:29:00,
2013-05-23 06:32:00,37.4,35.6,29.85,SSW,201,0.0,0.0,93,0.00,,---,0.47,VWS V14.01,2013-05-23 12:32:00,
2013-05-23 06:33:00,37.4,35.6,29.85,SSW,201,0.0,0.0,93,0.00,,---,0.47,VWS V14.01,2013-05-23 12:33:00,
2013-05-23 06:34:00,37.4,35.6,29.85,SSW,201,0.0,0.0,93,0.00,,---,0.47,VWS V14.01,2013-05-23 12:34:00,
2013-05-23 06:37:00,37.4,35.6,29.85,SSW,201,0.0,0.0,93,0.00,,---,0.47,VWS V14.01,2013-05-23 12:37:00,
2013-05-23 06:38:00,37.4,35.6,29.85,SSW,201,0.0,0.0,93,0.00,,---,0.47,VWS V14.01,2013-05-23 12:38:00,
2013-05-23 06:39:00,37.4,35.6,29.85,SSW,201,0.0,0.0,93,0.00,,---,0.47,VWS V14.01,2013-05-23 12:39:00,
2013-05-23 06:42:00,37.2,35.4,29.85,SSW,201,0.0,0.0,93,0.00,,---,0.47,VWS V14.01,2013-05-23 12:42:00,
2013-05-23 06:43:00,37.2,35.4,29.85,SSW,201,0.0,0.0,93,0.00,,---,0.47,VWS V14.01,2013-05-23 12:43:00,
2013-05-23 06:44:00,37.2,35.4,29.85,SSW,201,0.0,0.0,93,0.00,,---,0.47,VWS V14.01,2013-05-23 12:44:00,
2013-05-23 06:45:00,37.2,35.4,29.85,SSW,201,0.0,0.0,93,0.00,,---,0.47,VWS V14.01,2013-05-23 12:45:00,
2013-05-23 06:48:00,37.2,35.4,29.85,SSW,201,0.0,0.0,93,0.00,,---,0.47,VWS V14.01,2013-05-23 12:48:00,
2013-05-23 06:49:00,37.2,35.4,29.85,SSW,201,0.0,0.0,93,0.00,,---,0.47,VWS V14.01,2013-05-23 12:49:00,
2013-05-23 06:50:00,37.2,35.4,29.85,SSW,201,0.0,0.0,93,0.00,,---,0.47,VWS V14.01,2013-05-23 12:50:00,
2013-05-23 06:53:00,37.2,35.4,29.85,SSW,201,0.0,0.0,93,0.00,,---,0.47,VWS V14.01,2013-05-23 12:53:00,
2013-05-23 06:54:00,37.2,35.4,29.85,SSW,201,0.0,0.0,93,0.00,,---,0.47,VWS V14.01,2013-05-23 12:54:00,
2013-05-23 06:56:00,37.2,35.4,29.85,SSW,201,0.0,0.0,93,0.00,,---,0.47,VWS V14.01,2013-05-23 12:56:00,
2013-05-23 06:58:00,37.2,35.4,29.85,SSW,201,0.0,0.0,93,0.00,,---,0.47,VWS V14.01,2013-05-23 12:58:00,
2013-05-23 06:59:00,37.2,35.4,29.85,SSW,201,0.0,0.0,93,0.00,,---,0.47,VWS V14.01,2013-05-23 12:59:00,
2013-05-23 07:00:00,37.4,35.6,29.85,SSW,201,0.0,0.0,93,0.00,,---,0.47,VWS V14.01,2013-05-23 13:00:00,
2013-05-23 07:01:00,37.4,35.6,29.85,SSW,201,0.0,0.0,93,0.00,,---,0.47,VWS V14.01,2013-05-23 13:01:00,
2013-05-23 07:03:00,37.4,35.6,29.85,SSW,201,0.0,0.0,93,0.00,,---,0.47,VWS V14.01,2013-05-23 13:03:00,
2013-05-23 07:04:00,37.4,35.6,29.85,SSW,201,0.0,0.0,93,0.00,,---,0.47,VWS V14.01,2013-05-23 13:04:00,
2013-05-23 07:05:00,37.4,35.6,29.85,SSW,201,0.0,0.0,93,0.00,,---,0.47,VWS V14.01,2013-05-23 13:05:00,
2013-05-23 07:06:00,37.4,35.6,29.85,SSW,201,0.0,0.0,93,0.00,,---,0.47,VWS V14.01,2013-05-23 13:06:00,
2013-05-23 07:09:00,37.4,35.6,29.85,SSW,201,0.0,0.0,93,0.00,,---,0.47,VWS V14.01,2013-05-23 13:09:00,
2013-05-23 07:10:00,37.4,35.6,29.85,SSW,201,0.0,0.0,93,0.00,,---,0.47,VWS V14.01,2013-05-23 13:10:00,
2013-05-23 07:11:00,37.4,35.6,29.85,SSW,201,0.0,0.0,93,0.00,,---,0.47,VWS V14.01,2013-05-23 13:11:00,
2013-05-23 07:14:00,37.4,35.6,29.85,SSW,201,0.0,0.0,93,0.00,,---,0.47,VWS V14.01,2013-05-23 13:14:00,
2013-05-23 07:15:00,37.4,35.6,29.85,SSW,201,0.0,0.0,93,0.00,,---,0.47,VWS V14.01,2013-05-23 13:15:00,
2013-05-23 07:17:00,37.4,35.6,29.82,SSW,201,0.0,0.0,93,0.00,,---,0.47,VWS V14.01,2013-05-23 13:17:00,
2013-05-23 07:19:00,37.4,35.6,29.82,SSW,201,0.0,0.0,93,0.00,,---,0.47,VWS V14.01,2013-05-23 13:19:00,
2013-05-23 07:20:00,37.4,35.6,29.82,SSW,201,0.0,0.0,93,0.00,,---,0.47,VWS V14.01,2013-05-23 13:20:00,
2013-05-23 07:21:00,37.4,35.6,29.82,SSW,201,0.0,0.0,93,0.00,,---,0.47,VWS V14.01,2013-05-23 13:21:00,
2013-05-23 07:22:00,37.6,35.7,29.82,SSW,201,0.0,0.0,93,0.00,,---,0.47,VWS V14.01,2013-05-23 13:22:00,
2013-05-23 07:24:00,37.6,35.7,29.82,SSW,201,0.0,0.0,93,0.00,,---,0.47,VWS V14.01,2013-05-23 13:24:00,
2013-05-23 07:25:00,37.6,35.7,29.82,SSW,201,0.0,0.0,93,0.00,,---,0.47,VWS V14.01,2013-05-23 13:25:00,
2013-05-23 07:26:00,37.6,35.7,29.82,SSW,201,0.0,0.0,93,0.00,,---,0.47,VWS V14.01,2013-05-23 13:26:00,
2013-05-23 07:27:00,37.6,35.7,29.82,SSW,201,0.0,0.0,93,0.00,,---,0.00,VWS V14.01,2013-05-23 13:27:00,
2013-05-23 07:29:00,37.6,35.7,29.82,SSW,201,2.7,2.7,93,0.00,,---,0.47,VWS V14.01,2013-05-23 13:29:00,
2013-05-23 07:30:00,37.6,35.7,29.82,SSW,201,2.7,2.7,93,0.00,,---,0.47,VWS V14.01,2013-05-23 13:30:00,
2013-05-23 07:31:00,37.6,35.7,29.82,SSW,198,4.0,4.0,93,0.00,,---,0.47,VWS V14.01,2013-05-23 13:31:00,
2013-05-23 07:33:00,37.6,35.7,29.85,SSW,200,2.7,4.0,93,0.00,,---,0.47,VWS V14.01,2013-05-23 13:33:00,
2013-05-23 07:34:00,37.6,35.7,29.85,SSW,200,0.0,4.0,93,0.00,,---,0.47,VWS V14.01,2013-05-23 13:34:00,
2013-05-23 07:35:00,37.6,35.7,29.85,SSW,200,0.0,4.0,93,0.00,,---,0.47,VWS V14.01,2013-05-23 13:35:00,
2013-05-23 07:36:00,37.8,35.9,29.85,SSW,200,0.0,4.0,93,0.00,,---,0.47,VWS V14.01,2013-05-23 13:36:00,
2013-05-23 07:38:00,37.8,35.9,29.85,SSW,200,0.0,4.0,93,0.00,,---,0.47,VWS V14.01,2013-05-23 13:38:00,
2013-05-23 07:39:00,37.8,35.9,29.85,SSW,200,0.0,4.0,93,0.00,,---,0.47,VWS V14.01,2013-05-23 13:39:00,
2013-05-23 07:40:00,37.8,35.9,29.85,SSW,200,0.0,4.0,93,0.00,,---,0.47,VWS V14.01,2013-05-23 13:40:00,
2013-05-23 07:42:00,37.8,35.9,29.85,SSW,200,0.0,4.0,93,0.04,,---,0.51,VWS V14.01,2013-05-23 13:42:00,
2013-05-23 07:43:00,37.8,35.9,29.85,SSW,199,2.2,4.0,93,0.04,,---,0.51,VWS V14.01,2013-05-23 13:43:00,
2013-05-23 07:45:00,37.8,35.9,29.85,SSW,199,0.0,4.0,93,0.04,,---,0.51,VWS V14.01,2013-05-23 13:45:00,
2013-05-23 07:47:00,37.6,35.7,29.85,SSW,199,0.0,0.0,93,0.04,,---,0.51,VWS V14.01,2013-05-23 13:47:00,
2013-05-23 07:49:00,37.6,35.7,29.85,SSW,199,0.0,0.0,93,0.04,,---,0.51,VWS V14.01,2013-05-23 13:49:00,
2013-05-23 07:50:00,37.6,35.7,29.85,SSW,199,0.0,0.0,93,0.04,,---,0.51,VWS V14.01,2013-05-23 13:50:00,
2013-05-23 07:52:00,37.6,35.7,29.85,SSW,199,0.0,0.0,93,0.04,,---,0.51,VWS V14.01,2013-05-23 13:52:00,
2013-05-23 07:54:00,37.4,35.6,29.85,SSW,199,0.0,0.0,93,0.04,,---,0.00,VWS V14.01,2013-05-23 13:54:00,
2013-05-23 07:55:00,37.4,35.6,29.85,SSW,199,0.0,0.0,93,0.04,,---,0.51,VWS V14.01,2013-05-23 13:55:00,
2013-05-23 07:56:00,37.4,35.6,29.85,SSW,199,0.0,0.0,93,0.04,,---,0.51,VWS V14.01,2013-05-23 13:56:00,
2013-05-23 07:58:00,37.4,35.6,29.85,SSW,199,0.0,0.0,93,0.04,,---,0.51,VWS V14.01,2013-05-23 13:58:00,
2013-05-23 07:59:00,37.2,35.4,29.85,SSW,199,0.0,0.0,93,0.04,,---,0.51,VWS V14.01,2013-05-23 13:59:00,
2013-05-23 08:00:00,37.2,35.4,29.85,SSW,199,0.0,0.0,93,0.04,,---,0.51,VWS V14.01,2013-05-23 14:00:00,
2013-05-23 08:01:00,37.0,35.2,29.85,SSW,199,0.0,0.0,93,0.04,,---,0.51,VWS V14.01,2013-05-23 14:01:00,
2013-05-23 08:03:00,37.0,35.2,29.85,SSW,199,0.0,0.0,93,0.04,,---,0.51,VWS V14.01,2013-05-23 14:03:00,
2013-05-23 08:04:00,36.9,35.0,29.85,SSW,200,2.7,3.1,93,0.04,,---,0.51,VWS V14.01,2013-05-23 14:04:00,
2013-05-23 08:06:00,36.9,35.0,29.85,SSW,200,2.7,3.1,93,0.04,,---,0.51,VWS V14.01,2013-05-23 14:06:00,
2013-05-23 08:08:00,36.7,34.6,29.85,SSW,200,3.1,4.0,92,0.04,,---,0.00,VWS V14.01,2013-05-23 14:08:00,
2013-05-23 08:09:00,36.7,34.6,29.85,SSW,200,0.0,4.0,92,0.04,,---,0.51,VWS V14.01,2013-05-23 14:09:00,
2013-05-23 08:11:00,36.7,34.6,29.85,SSW,200,0.0,4.0,92,0.04,,---,0.51,VWS V14.01,2013-05-23 14:11:00,
2013-05-23 08:12:00,36.7,34.6,29.85,SSW,200,0.0,4.0,92,0.04,,---,0.51,VWS V14.01,2013-05-23 14:12:00,
2013-05-23 08:13:00,36.7,34.6,29.85,SSW,200,0.0,4.0,92,0.12,,---,0.59,VWS V14.01,2013-05-23 14:13:00,
2013-05-23 08:15:00,36.7,34.6,29.85,SSW,200,0.0,4.0,92,0.12,,---,0.59,VWS V14.01,2013-05-23 14:15:00,
2013-05-23 08:16:00,36.7,34.6,29.85,SSW,200,0.0,0.0,92,0.12,,---,0.59,VWS V14.01,2013-05-23 14:16:00,
2013-05-23 08:17:00,36.5,34.4,29.85,SSW,200,0.0,0.0,92,0.12,,---,0.59,VWS V14.01,2013-05-23 14:17:00,
2013-05-23 08:19:00,36.3,34.2,29.85,SSW,200,0.0,0.0,92,0.12,,---,0.59,VWS V14.01,2013-05-23 14:19:00,
2013-05-23 08:20:00,36.3,34.2,29.85,SSW,200,0.0,0.0,92,0.12,,---,0.59,VWS V14.01,2013-05-23 14:20:00,
2013-05-23 08:21:00,36.3,34.2,29.85,SSW,200,0.0,0.0,92,0.12,,---,0.59,VWS V14.01,2013-05-23 14:21:00,
2013-05-23 08:22:00,36.3,34.2,29.85,SSW,200,0.0,0.0,92,0.12,,---,0.59,VWS V14.01,2013-05-23 14:22:00,
2013-05-23 08:24:00,36.1,34.0,29.85,SSW,200,0.0,0.0,92,0.12,,---,0.59,VWS V14.01,2013-05-23 14:24:00,
2013-05-23 08:25:00,36.1,34.0,29.85,SSW,200,0.0,0.0,92,0.12,,---,0.59,VWS V14.01,2013-05-23 14:25:00,
2013-05-23 08:26:00,36.1,34.0,29.85,SSW,200,0.0,0.0,92,0.12,,---,0.59,VWS V14.01,2013-05-23 14:26:00,
2013-05-23 08:27:00,36.1,34.0,29.85,SSW,200,0.0,0.0,92,0.12,,---,0.59,VWS V14.01,2013-05-23 14:27:00,
2013-05-23 08:29:00,36.1,34.0,29.85,SSW,200,0.0,0.0,92,0.12,,---,0.59,VWS V14.01,2013-05-23 14:29:00,
2013-05-23 08:30:00,36.1,34.0,29.85,SSW,200,0.0,0.0,92,0.12,,---,0.59,VWS V14.01,2013-05-23 14:30:00,
2013-05-23 08:31:00,36.3,34.2,29.85,SSW,200,0.0,0.0,92,0.12,,---,0.59,VWS V14.01,2013-05-23 14:31:00,
2013-05-23 08:32:00,36.1,34.0,29.85,SSW,200,0.0,0.0,92,0.12,,---,0.59,VWS V14.01,2013-05-23 14:32:00,
2013-05-23 08:34:00,36.1,34.0,29.85,SSW,200,0.0,0.0,92,0.12,,---,0.59,VWS V14.01,2013-05-23 14:34:00,
2013-05-23 08:35:00,36.1,34.0,29.85,SSW,200,0.0,0.0,92,0.12,,---,0.59,VWS V14.01,2013-05-23 14:35:00,
2013-05-23 08:37:00,36.3,34.2,29.85,SSW,200,0.0,0.0,92,0.16,,---,0.63,VWS V14.01,2013-05-23 14:37:00,
2013-05-23 08:39:00,36.3,34.2,29.85,SSW,200,0.0,0.0,92,0.16,,---,0.63,VWS V14.01,2013-05-23 14:39:00,
2013-05-23 08:40:00,36.5,34.4,29.85,SSW,200,0.0,0.0,92,0.16,,---,0.63,VWS V14.01,2013-05-23 14:40:00,
2013-05-23 08:42:00,36.5,34.4,29.85,SSW,200,0.0,0.0,92,0.16,,---,0.63,VWS V14.01,2013-05-23 14:42:00,
2013-05-23 08:45:00,36.9,35.0,29.85,SSW,200,0.0,0.0,93,0.16,,---,0.00,VWS V14.01,2013-05-23 14:45:00,
2013-05-23 08:47:00,36.9,35.0,29.85,SSW,200,0.0,0.0,93,0.12,,---,0.63,VWS V14.01,2013-05-23 14:47:00,
2013-05-23 08:49:00,37.0,35.2,29.85,SSW,200,0.0,0.0,93,0.12,,---,0.63,VWS V14.01,2013-05-23 14:49:00,
2013-05-23 08:50:00,37.0,35.2,29.85,SSW,200,0.0,0.0,93,0.12,,---,0.63,VWS V14.01,2013-05-23 14:50:00,
2013-05-23 08:52:00,37.2,35.4,29.85,SSW,200,0.0,0.0,93,0.12,,---,0.63,VWS V14.01,2013-05-23 14:52:00,
2013-05-23 08:55:00,37.4,35.6,29.85,SSW,200,0.0,0.0,93,0.12,,---,0.63,VWS V14.01,2013-05-23 14:55:00,
2013-05-23 08:57:00,37.4,35.6,29.85,SSW,200,0.0,0.0,93,0.12,,---,0.63,VWS V14.01,2013-05-23 14:57:00,
2013-05-23 08:58:00,37.6,35.7,29.85,SSW,200,0.0,0.0,93,0.12,,---,0.63,VWS V14.01,2013-05-23 14:58:00,
2013-05-23 09:00:00,37.6,35.7,29.85,SSW,200,0.0,0.0,93,0.12,,---,0.00,VWS V14.01,2013-05-23 15:00:00,
2013-05-23 09:01:00,37.6,35.7,29.85,SSW,200,0.0,0.0,93,0.12,,---,0.63,VWS V14.01,2013-05-23 15:01:00,
2013-05-23 09:02:00,37.6,35.7,29.85,SSW,200,0.0,0.0,93,0.12,,---,0.63,VWS V14.01,2013-05-23 15:02:00,
2013-05-23 09:04:00,37.6,35.5,29.85,SSW,200,0.0,0.0,92,0.12,,---,0.63,VWS V14.01,2013-05-23 15:04:00,
2013-05-23 09:05:00,37.6,35.5,29.85,SSW,200,0.0,0.0,92,0.12,,---,0.63,VWS V14.01,2013-05-23 15:05:00,
2013-05-23 09:06:00,37.4,35.3,29.85,SSW,200,0.0,0.0,92,0.12,,---,0.63,VWS V14.01,2013-05-23 15:06:00,
2013-05-23 09:07:00,37.4,35.3,29.85,SSW,200,0.0,0.0,92,0.12,,---,0.63,VWS V14.01,2013-05-23 15:07:00,
2013-05-23 09:09:00,37.6,35.5,29.85,SSW,200,0.0,0.0,92,0.12,,---,0.63,VWS V14.01,2013-05-23 15:09:00,
2013-05-23 09:10:00,37.6,35.5,29.85,SSW,200,0.0,0.0,92,0.12,,---,0.63,VWS V14.01,2013-05-23 15:10:00,
2013-05-23 09:11:00,37.6,35.5,29.85,SSW,200,0.0,0.0,92,0.12,,---,0.63,VWS V14.01,2013-05-23 15:11:00,
2013-05-23 09:12:00,37.6,35.5,29.85,SSW,200,0.0,0.0,92,0.12,,---,0.63,VWS V14.01,2013-05-23 15:12:00,
2013-05-23 09:13:00,37.8,35.7,29.85,SSW,200,0.0,0.0,92,0.12,,---,0.63,VWS V14.01,2013-05-23 15:13:00,
2013-05-23 09:15:00,37.9,35.8,29.85,SSW,200,0.0,0.0,92,0.12,,---,0.63,VWS V14.01,2013-05-23 15:15:00,
2013-05-23 09:17:00,37.9,36.1,29.85,SSW,200,0.0,0.0,93,0.04,,---,0.63,VWS V14.01,2013-05-23 15:17:00,
2013-05-23 09:18:00,38.1,36.3,29.85,SSW,200,0.0,0.0,93,0.04,,---,0.63,VWS V14.01,2013-05-23 15:18:00,
2013-05-23 09:20:00,38.3,36.5,29.85,SSW,199,0.0,0.0,93,0.04,,---,0.63,VWS V14.01,2013-05-23 15:20:00,
2013-05-23 09:21:00,38.3,36.5,29.85,SSW,199,0.0,0.0,93,0.04,,---,0.63,VWS V14.01,2013-05-23 15:21:00,
2013-05-23 09:22:00,38.3,36.5,29.85,SSW,199,0.0,0.0,93,0.04,,---,0.63,VWS V14.01,2013-05-23 15:22:00,
2013-05-23 09:23:00,38.3,36.5,29.85,SSW,202,0.0,0.0,93,0.04,,---,0.63,VWS V14.01,2013-05-23 15:23:00,
2013-05-23 09:24:00,38.5,36.6,29.85,SSW,202,0.0,0.0,93,0.04,,---,0.63,VWS V14.01,2013-05-23 15:24:00,
2013-05-23 09:25:00,38.5,36.6,29.85,SE,143,3.1,3.1,93,0.04,,---,0.63,VWS V14.01,2013-05-23 15:25:00,
2013-05-23 09:26:00,38.7,36.8,29.85,SE,137,2.2,3.1,93,0.04,,---,0.63,VWS V14.01,2013-05-23 15:26:00,
2013-05-23 09:27:00,38.7,36.8,29.85,SE,130,0.0,3.1,93,0.04,,---,0.63,VWS V14.01,2013-05-23 15:27:00,
2013-05-23 09:28:00,38.7,36.8,29.85,SE,130,0.0,3.1,93,0.04,,---,0.63,VWS V14.01,2013-05-23 15:28:00,
2013-05-23 09:29:00,38.7,36.8,29.85,SE,130,0.0,3.1,93,0.04,,---,0.63,VWS V14.01,2013-05-23 15:29:00,
2013-05-23 09:31:00,38.8,37.0,29.85,SE,130,0.0,0.0,93,0.04,,---,0.63,VWS V14.01,2013-05-23 15:31:00,
2013-05-23 09:32:00,39.0,37.2,29.85,SE,127,2.2,2.7,93,0.04,,---,0.63,VWS V14.01,2013-05-23 15:32:00,
2013-05-23 09:34:00,39.0,37.2,29.85,SE,127,0.0,2.7,93,0.04,,---,0.00,VWS V14.01,2013-05-23 15:34:00,
2013-05-23 09:36:00,39.2,37.1,29.85,SE,127,0.0,2.7,92,0.04,,---,0.63,VWS V14.01,2013-05-23 15:36:00,
2013-05-23 09:37:00,39.2,37.1,29.85,SE,127,0.0,2.7,92,0.04,,---,0.63,VWS V14.01,2013-05-23 15:37:00,
2013-05-23 09:39:00,39.4,37.2,29.85,SE,127,0.0,2.7,92,0.04,,---,0.63,VWS V14.01,2013-05-23 15:39:00,
2013-05-23 09:42:00,39.4,37.2,29.85,SE,124,0.0,2.7,92,0.04,,---,0.63,VWS V14.01,2013-05-23 15:42:00,
2013-05-23 09:44:00,39.6,37.4,29.85,SE,124,0.0,2.7,92,0.04,,---,0.63,VWS V14.01,2013-05-23 15:44:00,
2013-05-23 09:47:00,39.7,37.6,29.85,SE,124,0.0,0.0,92,0.00,,---,0.63,VWS V14.01,2013-05-23 15:47:00,
2013-05-23 09:48:00,39.7,37.6,29.85,SE,124,0.0,0.0,92,0.00,,---,0.63,VWS V14.01,2013-05-23 15:48:00,
2013-05-23 09:49:00,39.9,37.8,29.85,ESE,119,0.0,0.0,92,0.00,,---,0.63,VWS V14.01,2013-05-23 15:49:00,
2013-05-23 09:50:00,39.9,37.8,29.85,ESE,118,0.0,0.0,92,0.00,,---,0.63,VWS V14.01,2013-05-23 15:50:00,
2013-05-23 09:52:00,39.9,37.8,29.85,East,81,0.0,2.7,92,0.00,,---,0.63,VWS V14.01,2013-05-23 15:52:00,
2013-05-23 09:53:00,39.9,37.8,29.85,East,81,0.0,2.7,92,0.00,,---,0.63,VWS V14.01,2013-05-23 15:53:00,
2013-05-23 09:54:00,39.9,37.8,29.85,ENE,72,0.0,2.7,92,0.00,,---,0.00,VWS V14.01,2013-05-23 15:54:00,
2013-05-23 09:55:00,39.9,37.8,29.85,North,4,0.0,3.1,92,0.00,,---,0.63,VWS V14.01,2013-05-23 15:55:00,
2013-05-23 09:57:00,39.7,37.6,29.85,North,4,0.0,3.1,92,0.00,,---,0.63,VWS V14.01,2013-05-23 15:57:00,
2013-05-23 09:58:00,39.7,37.3,29.85,North,4,0.0,3.1,91,0.00,,---,0.63,VWS V14.01,2013-05-23 15:58:00,
2013-05-23 09:59:00,39.7,37.3,29.85,North,4,2.2,3.1,91,0.00,,---,0.63,VWS V14.01,2013-05-23 15:59:00,
2013-05-23 10:00:00,39.9,37.5,29.85,North,4,0.0,3.1,91,0.00,,---,0.63,VWS V14.01,2013-05-23 16:00:00,
2013-05-23 10:03:00,39.9,37.5,29.85,NNE,25,0.0,3.6,91,0.00,,---,0.63,VWS V14.01,2013-05-23 16:03:00,
2013-05-23 10:04:00,39.7,37.3,29.85,NNE,26,2.7,3.6,91,0.00,,---,0.63,VWS V14.01,2013-05-23 16:04:00,
2013-05-23 10:05:00,39.7,37.3,29.85,NNE,26,2.2,3.6,91,0.00,,---,0.63,VWS V14.01,2013-05-23 16:05:00,
2013-05-23 10:08:00,39.7,37.3,29.85,NNE,20,0.0,3.6,91,0.00,,---,0.63,VWS V14.01,2013-05-23 16:08:00,
2013-05-23 10:09:00,39.7,37.3,29.85,NNE,20,0.0,3.6,91,0.00,,---,0.63,VWS V14.01,2013-05-23 16:09:00,
2013-05-23 10:10:00,39.7,37.0,29.85,NNE,20,0.0,3.6,90,0.00,,---,0.63,VWS V14.01,2013-05-23 16:10:00,
2013-05-23 10:13:00,39.9,37.2,29.85,NNE,17,0.0,3.6,90,0.00,,---,0.63,VWS V14.01,2013-05-23 16:13:00,
2013-05-23 10:14:00,39.9,37.2,29.85,NNE,16,3.1,3.6,90,0.00,,---,0.63,VWS V14.01,2013-05-23 16:14:00,
2013-05-23 10:15:00,39.9,37.2,29.85,NNE,16,0.0,3.6,90,0.00,,---,0.63,VWS V14.01,2013-05-23 16:15:00,
2013-05-23 10:18:00,40.3,37.6,29.85,NNE,14,0.0,3.1,90,0.00,,---,0.63,VWS V14.01,2013-05-23 16:18:00,
2013-05-23 10:19:00,40.3,37.6,29.85,NNE,14,0.0,3.1,90,0.00,,---,0.63,VWS V14.01,2013-05-23 16:19:00,
2013-05-23 10:20:00,40.3,37.6,29.85,NNE,13,0.0,3.1,90,0.00,,---,0.63,VWS V14.01,2013-05-23 16:20:00,
2013-05-23 10:21:00,40.5,37.8,29.85,NNE,13,2.2,3.1,90,0.00,,---,0.63,VWS V14.01,2013-05-23 16:21:00,
2013-05-23 10:24:00,40.6,38.2,29.85,NNE,12,0.0,3.1,91,0.00,,---,0.63,VWS V14.01,2013-05-23 16:24:00,
2013-05-23 10:25:00,40.8,38.4,29.85,North,8,0.0,3.1,91,0.00,,---,0.63,VWS V14.01,2013-05-23 16:25:00,
2013-05-23 10:26:00,40.6,37.9,29.85,North,8,2.2,3.1,90,0.00,,---,0.63,VWS V14.01,2013-05-23 16:26:00,
2013-05-23 10:29:00,40.6,37.9,29.85,North,8,0.0,3.1,90,0.00,,---,0.63,VWS V14.01,2013-05-23 16:29:00,
2013-05-23 10:30:00,40.6,37.9,29.85,North,4,3.6,3.6,90,0.00,,---,0.63,VWS V14.01,2013-05-23 16:30:00,
2013-05-23 10:31:00,40.5,37.5,29.85,North,357,3.1,3.6,89,0.00,,---,0.63,VWS V14.01,2013-05-23 16:31:00,
2013-05-23 10:34:00,40.3,37.0,29.85,North,0,2.7,4.0,88,0.00,,---,0.63,VWS V14.01,2013-05-23 16:34:00,
2013-05-23 10:35:00,40.3,37.0,29.85,North,2,2.7,4.0,88,0.00,,---,0.63,VWS V14.01,2013-05-23 16:35:00,
2013-05-23 10:37:00,39.9,36.7,29.85,North,4,0.0,4.0,88,0.00,,---,0.63,VWS V14.01,2013-05-23 16:37:00,
2013-05-23 10:39:00,39.9,36.7,29.85,NE,35,0.0,4.0,88,0.00,,---,0.63,VWS V14.01,2013-05-23 16:39:00,
2013-05-23 10:40:00,39.9,36.7,29.85,NE,35,0.0,4.0,88,0.00,,---,0.63,VWS V14.01,2013-05-23 16:40:00,
2013-05-23 10:42:00,39.9,36.7,29.85,NE,35,0.0,4.0,88,0.00,,---,0.63,VWS V14.01,2013-05-23 16:42:00,
2013-05-23 10:44:00,40.1,36.8,29.85,NE,35,0.0,4.0,88,0.00,,---,0.63,VWS V14.01,2013-05-23 16:44:00,
2013-05-23 10:45:00,40.3,37.0,29.85,NNE,16,2.2,4.0,88,0.00,,---,0.63,VWS V14.01,2013-05-23 16:45:00,
2013-05-23 10:46:00,40.5,37.2,29.85,North,3,2.7,3.1,88,0.00,,---,0.63,VWS V14.01,2013-05-23 16:46:00,
2013-05-23 10:47:00,40.5,37.2,29.85,NNE,17,3.1,3.1,88,0.00,,---,0.63,VWS V14.01,2013-05-23 16:47:00,
2013-05-23 10:50:00,40.6,37.4,29.85,North,2,2.7,3.6,88,0.00,,---,0.00,VWS V14.01,2013-05-23 16:50:00,
2013-05-23 10:51:00,40.8,37.5,29.85,North,6,0.0,3.6,88,0.00,,---,0.00,VWS V14.01,2013-05-23 16:51:00,
2013-05-23 10:53:00,41.2,37.9,29.85,North,11,2.7,3.6,88,0.00,,---,0.63,VWS V14.01,2013-05-23 16:53:00,
2013-05-23 10:55:00,41.4,37.8,29.85,North,5,0.0,3.6,87,0.00,,---,0.63,VWS V14.01,2013-05-23 16:55:00,
2013-05-23 10:56:00,41.4,37.8,29.85,North,5,0.0,3.6,87,0.00,,---,0.63,VWS V14.01,2013-05-23 16:56:00,
2013-05-23 10:58:00,41.4,37.5,29.85,North,8,2.7,4.5,86,0.00,,---,0.63,VWS V14.01,2013-05-23 16:58:00,
2013-05-23 11:00:00,41.4,37.5,29.85,NNE,20,2.7,4.5,86,0.00,,---,0.00,VWS V14.01,2013-05-23 17:00:00,
2013-05-23 11:01:00,41.4,37.2,29.85,NNE,21,0.0,3.1,85,0.00,,---,0.63,VWS V14.01,2013-05-23 17:01:00,
2013-05-23 11:04:00,41.2,36.7,29.85,NNE,18,0.0,3.1,84,0.00,,---,0.63,VWS V14.01,2013-05-23 17:04:00,
2013-05-23 11:05:00,41.2,36.4,29.85,NNE,18,0.0,3.1,83,0.00,,---,0.63,VWS V14.01,2013-05-23 17:05:00,
2013-05-23 11:06:00,41.2,36.4,29.85,NNE,19,2.2,3.1,83,0.00,,---,0.63,VWS V14.01,2013-05-23 17:06:00,
2013-05-23 11:07:00,41.2,36.4,29.85,NNE,25,3.1,3.1,83,0.00,,---,0.63,VWS V14.01,2013-05-23 17:07:00,
2013-05-23 11:10:00,40.8,35.8,29.85,North,0,2.7,3.1,82,0.00,,---,0.63,VWS V14.01,2013-05-23 17:10:00,
2013-05-23 11:11:00,40.8,35.8,29.85,North,353,2.2,3.6,82,0.00,,---,0.63,VWS V14.01,2013-05-23 17:11:00,
2013-05-23 11:12:00,40.6,35.6,29.85,North,10,3.1,3.6,82,0.00,,---,0.63,VWS V14.01,2013-05-23 17:12:00,
2013-05-23 11:15:00,40.5,35.1,29.85,North,8,3.1,3.6,81,0.00,,---,0.63,VWS V14.01,2013-05-23 17:15:00,
2013-05-23 11:16:00,40.5,35.1,29.85,North,1,2.7,5.4,81,0.00,,---,0.63,VWS V14.01,2013-05-23 17:16:00,
2013-05-23 11:17:00,40.5,35.1,29.85,North,5,3.6,5.4,81,0.00,,---,0.63,VWS V14.01,2013-05-23 17:17:00,
2013-05-23 11:21:00,41.0,35.6,29.85,North,0,2.7,5.4,81,0.00,,---,0.63,VWS V14.01,2013-05-23 17:21:00,
2013-05-23 11:22:00,41.2,36.1,29.85,North,6,2.7,5.4,82,0.00,,---,0.63,VWS V14.01,2013-05-23 17:22:00,
2013-05-23 11:23:00,41.2,36.1,29.85,NNE,15,4.9,5.4,82,0.00,,---,0.63,VWS V14.01,2013-05-23 17:23:00,
2013-05-23 11:26:00,41.0,34.7,29.85,North,6,3.1,5.4,78,0.00,,---,0.63,VWS V14.01,2013-05-23 17:26:00,
2013-05-23 11:27:00,41.2,34.8,29.85,North,6,3.1,5.4,78,0.00,,---,0.63,VWS V14.01,2013-05-23 17:27:00,
2013-05-23 11:28:00,41.2,34.8,29.85,NNW,341,2.7,5.4,78,0.00,,---,0.63,VWS V14.01,2013-05-23 17:28:00,
2013-05-23 11:32:00,41.5,35.2,29.85,North,4,4.9,4.9,78,0.00,,---,0.63,VWS V14.01,2013-05-23 17:32:00,
2013-05-23 11:33:00,41.5,35.2,29.85,North,6,2.7,4.9,78,0.00,,---,0.63,VWS V14.01,2013-05-23 17:33:00,
2013-05-23 11:37:00,42.1,35.4,29.85,North,0,4.0,4.9,77,0.00,,---,0.63,VWS V14.01,2013-05-23 17:37:00,
2013-05-23 11:38:00,42.1,35.4,29.85,North,3,3.1,4.9,77,0.00,,---,0.63,VWS V14.01,2013-05-23 17:38:00,
2013-05-23 11:42:00,42.3,34.9,29.85,North,0,3.1,5.8,75,0.00,,---,0.63,VWS V14.01,2013-05-23 17:42:00,
2013-05-23 11:43:00,42.3,35.2,29.85,North,357,2.7,5.8,76,0.00,,---,0.00,VWS V14.01,2013-05-23 17:43:00,
2013-05-23 11:44:00,42.4,35.4,29.85,North,10,2.7,5.8,76,0.00,,---,0.63,VWS V14.01,2013-05-23 17:44:00,
2013-05-23 11:47:00,42.3,34.6,29.85,North,6,3.1,4.9,74,0.00,,---,0.63,VWS V14.01,2013-05-23 17:47:00,
2013-05-23 11:48:00,42.3,34.6,29.85,North,8,2.7,4.9,74,0.00,,---,0.00,VWS V14.01,2013-05-23 17:48:00,
2013-05-23 11:49:00,42.3,34.6,29.85,North,1,2.7,4.9,74,0.00,,---,0.63,VWS V14.01,2013-05-23 17:49:00,
2013-05-23 11:52:00,42.1,33.7,29.85,NNE,17,3.6,4.9,72,0.00,,---,0.63,VWS V14.01,2013-05-23 17:52:00,
2013-05-23 11:53:00,42.1,33.7,29.85,North,7,4.0,4.9,72,0.00,,---,0.63,VWS V14.01,2013-05-23 17:53:00,
2013-05-23 11:54:00,42.1,33.7,29.85,NNE,13,3.1,4.9,72,0.00,,---,0.63,VWS V14.01,2013-05-23 17:54:00,
2013-05-23 11:57:00,41.7,32.3,29.85,NNE,20,2.7,4.9,69,0.00,,---,0.63,VWS V14.01,2013-05-23 17:57:00,
2013-05-23 11:58:00,41.7,32.3,29.85,North,9,2.2,4.9,69,0.00,,---,0.63,VWS V14.01,2013-05-23 17:58:00,
2013-05-23 11:59:00,41.7,32.3,29.85,North,0,3.6,4.9,69,0.00,,---,0.63,VWS V14.01,2013-05-23 17:59:00,
2013-05-23 12:02:00,41.5,32.1,29.85,North,1,3.1,3.6,69,0.00,,---,0.63,VWS V14.01,2013-05-23 18:02:00,
2013-05-23 12:03:00,41.5,32.1,29.85,NNE,22,4.5,5.4,69,0.00,,---,0.63,VWS V14.01,2013-05-23 18:03:00,
2013-05-23 12:04:00,41.5,32.1,29.85,NNE,15,4.0,5.8,69,0.00,,---,0.63,VWS V14.01,2013-05-23 18:04:00,
2013-05-23 12:07:00,41.0,31.6,29.85,North,9,3.6,5.8,69,0.00,,---,0.63,VWS V14.01,2013-05-23 18:07:00,
2013-05-23 12:08:00,40.8,31.8,29.85,North,11,2.7,5.8,70,0.00,,---,0.63,VWS V14.01,2013-05-23 18:08:00,
2013-05-23 12:09:00,40.8,31.8,29.85,NNE,12,2.2,5.8,70,0.00,,---,0.63,VWS V14.01,2013-05-23 18:09:00,
2013-05-23 12:10:00,40.8,32.2,29.85,NNE,15,3.6,5.8,71,0.00,,---,0.63,VWS V14.01,2013-05-23 18:10:00,
2013-05-23 12:12:00,40.6,32.3,29.85,North,357,2.2,5.8,72,0.00,,---,0.63,VWS V14.01,2013-05-23 18:12:00,
2013-05-23 12:13:00,40.6,32.3,29.85,North,357,4.0,5.8,72,0.00,,---,0.63,VWS V14.01,2013-05-23 18:13:00,
2013-05-23 12:14:00,40.8,32.5,29.85,North,357,2.2,5.8,72,0.00,,---,0.63,VWS V14.01,2013-05-23 18:14:00,
2013-05-23 12:15:00,40.8,32.8,29.85,North,0,3.6,5.8,73,0.00,,---,0.00,VWS V14.01,2013-05-23 18:15:00,
2013-05-23 12:17:00,41.0,33.0,29.85,North,357,2.7,3.6,73,0.00,,---,0.63,VWS V14.01,2013-05-23 18:17:00,
2013-05-23 12:19:00,41.0,33.0,29.85,North,357,0.0,3.6,73,0.00,,---,0.63,VWS V14.01,2013-05-23 18:19:00,
2013-05-23 12:20:00,41.2,33.2,29.85,North,357,0.0,3.6,73,0.00,,---,0.63,VWS V14.01,2013-05-23 18:20:00,
2013-05-23 12:23:00,41.2,32.5,29.85,North,357,2.7,3.6,71,0.00,,---,0.63,VWS V14.01,2013-05-23 18:23:00,
2013-05-23 12:24:00,41.4,32.7,29.85,North,0,2.2,3.6,71,0.00,,---,0.63,VWS V14.01,2013-05-23 18:24:00,
2013-05-23 12:26:00,41.7,33.0,29.85,North,353,2.7,3.6,71,0.00,,---,0.63,VWS V14.01,2013-05-23 18:26:00,
2013-05-23 12:28:00,42.1,33.4,29.85,North,0,2.7,3.6,71,0.00,,---,0.63,VWS V14.01,2013-05-23 18:28:00,
2013-05-23 12:29:00,42.3,32.8,29.85,North,9,3.1,3.6,69,0.00,,---,0.00,VWS V14.01,2013-05-23 18:29:00,
2013-05-23 12:30:00,42.1,32.3,29.85,North,357,2.7,3.6,68,0.00,,---,0.63,VWS V14.01,2013-05-23 18:30:00,
2013-05-23 12:31:00,42.1,32.3,29.85,North,357,0.0,0.0,68,0.00,,---,0.63,VWS V14.01,2013-05-23 18:31:00,
2013-05-23 12:33:00,42.4,32.6,29.85,North,353,0.0,2.7,68,0.00,,---,0.63,VWS V14.01,2013-05-23 18:33:00,
2013-05-23 12:34:00,42.4,32.6,29.85,North,7,2.2,3.6,68,0.00,,---,0.63,VWS V14.01,2013-05-23 18:34:00,
2013-05-23 12:35:00,42.4,32.6,29.85,NNE,20,3.6,3.6,68,0.00,,---,0.00,VWS V14.01,2013-05-23 18:35:00,
2013-05-23 12:36:00,42.1,29.2,29.85,NNE,12,4.0,5.4,60,0.00,,---,0.63,VWS V14.01,2013-05-23 18:36:00,
2013-05-23 12:38:00,42.1,28.8,29.85,North,357,3.1,5.4,59,0.00,,---,0.63,VWS V14.01,2013-05-23 18:38:00,
2013-05-23 12:39:00,42.1,28.8,29.85,North,2,2.2,5.4,59,0.00,,---,0.63,VWS V14.01,2013-05-23 18:39:00,
2013-05-23 12:40:00,42.1,28.8,29.85,North,2,2.7,5.4,59,0.00,,---,0.63,VWS V14.01,2013-05-23 18:40:00,
2013-05-23 12:41:00,41.9,28.6,29.85,North,2,0.0,5.4,59,0.00,,---,0.63,VWS V14.01,2013-05-23 18:41:00,
2013-05-23 12:42:00,42.1,28.8,29.85,North,2,0.0,5.4,59,0.00,,---,0.63,VWS V14.01,2013-05-23 18:42:00,
2013-05-23 12:43:00,42.1,28.8,29.85,North,2,0.0,5.4,59,0.00,,---,0.63,VWS V14.01,2013-05-23 18:43:00,
2013-05-23 12:45:00,42.3,29.4,29.85,North,2,0.0,5.4,60,0.00,,---,0.00,VWS V14.01,2013-05-23 18:45:00,
2013-05-23 12:46:00,42.4,29.5,29.85,North,2,0.0,0.0,60,0.00,,---,0.00,VWS V14.01,2013-05-23 18:46:00,
2013-05-23 12:47:00,42.4,29.5,29.85,North,2,0.0,0.0,60,0.00,,---,0.63,VWS V14.01,2013-05-23 18:47:00,
2013-05-23 12:48:00,42.8,29.9,29.85,North,2,0.0,0.0,60,0.00,,---,0.63,VWS V14.01,2013-05-23 18:48:00,
2013-05-23 12:50:00,43.0,30.1,29.85,North,357,0.0,0.0,60,0.00,,---,0.63,VWS V14.01,2013-05-23 18:50:00,
2013-05-23 12:52:00,43.3,30.0,29.85,North,357,0.0,0.0,59,0.00,,---,0.63,VWS V14.01,2013-05-23 18:52:00,
2013-05-23 12:53:00,43.5,30.2,29.85,North,357,0.0,0.0,59,0.00,,---,0.63,VWS V14.01,2013-05-23 18:53:00,
2013-05-23 12:55:00,43.9,30.5,29.85,North,357,2.7,2.7,59,0.00,,---,0.63,VWS V14.01,2013-05-23 18:55:00,
2013-05-23 12:57:00,43.9,29.6,29.85,North,357,0.0,2.7,57,0.00,,---,0.63,VWS V14.01,2013-05-23 18:57:00,
2013-05-23 12:59:00,43.7,28.6,29.85,North,0,0.0,2.7,55,0.00,,---,0.63,VWS V14.01,2013-05-23 18:59:00,
2013-05-23 13:00:00,43.7,29.0,29.85,North,0,0.0,0.0,56,0.00,,---,0.63,VWS V14.01,2013-05-23 19:00:00,
2013-05-23 13:01:00,43.9,29.2,29.85,North,0,0.0,0.0,56,0.00,,---,0.63,VWS V14.01,2013-05-23 19:01:00,
2013-05-23 13:02:00,44.1,29.8,29.85,North,0,0.0,0.0,57,0.00,,---,0.63,VWS V14.01,2013-05-23 19:02:00,
2013-05-23 13:04:00,44.2,29.5,29.85,NNE,32,0.0,2.7,56,0.00,,---,0.63,VWS V14.01,2013-05-23 19:04:00,
2013-05-23 13:06:00,44.4,29.7,29.85,NE,54,0.0,2.7,56,0.00,,---,0.63,VWS V14.01,2013-05-23 19:06:00,
2013-05-23 13:07:00,44.4,29.7,29.85,ENE,58,0.0,2.7,56,0.00,,---,0.63,VWS V14.01,2013-05-23 19:07:00,
2013-05-23 13:08:00,44.6,29.5,29.85,ENE,58,0.0,2.7,55,0.00,,---,0.63,VWS V14.01,2013-05-23 19:08:00,
2013-05-23 13:09:00,44.6,29.9,29.85,ENE,59,0.0,2.7,56,0.00,,---,0.63,VWS V14.01,2013-05-23 19:09:00,
2013-05-23 13:11:00,44.6,29.5,29.85,ENE,69,2.7,2.7,55,0.00,,---,0.63,VWS V14.01,2013-05-23 19:11:00,
2013-05-23 13:13:00,44.6,29.5,29.85,ESE,117,2.2,2.7,55,0.00,,---,0.63,VWS V14.01,2013-05-23 19:13:00,
2013-05-23 13:15:00,44.8,29.6,29.85,SE,142,2.2,3.6,55,0.00,,---,0.63,VWS V14.01,2013-05-23 19:15:00,
2013-05-23 13:16:00,44.8,29.6,29.85,SSE,148,0.0,2.2,55,0.00,,---,0.63,VWS V14.01,2013-05-23 19:16:00,
2013-05-23 13:18:00,44.8,29.2,29.88,SE,127,2.7,2.7,54,0.00,,---,0.63,VWS V14.01,2013-05-23 19:18:00,
2013-05-23 13:20:00,44.8,29.2,29.88,SE,126,0.0,2.7,54,0.00,,---,0.63,VWS V14.01,2013-05-23 19:20:00,
2013-05-23 13:21:00,44.8,28.7,29.88,ESE,114,2.7,3.6,53,0.00,,---,0.00,VWS V14.01,2013-05-23 19:21:00,
2013-05-23 13:23:00,44.8,28.2,29.88,ESE,114,0.0,3.6,52,0.00,,---,0.63,VWS V14.01,2013-05-23 19:23:00,
2013-05-23 13:24:00,44.8,28.2,29.88,ESE,114,0.0,3.6,52,0.00,,---,0.63,VWS V14.01,2013-05-23 19:24:00,
2013-05-23 13:25:00,44.8,28.7,29.88,ESE,114,0.0,3.6,53,0.00,,---,0.63,VWS V14.01,2013-05-23 19:25:00,
2013-05-23 13:26:00,45.0,28.9,29.88,ESE,114,0.0,3.6,53,0.00,,---,0.63,VWS V14.01,2013-05-23 19:26:00,
2013-05-23 13:27:00,45.0,28.9,29.88,ESE,114,0.0,3.6,53,0.00,,---,0.63,VWS V14.01,2013-05-23 19:27:00,
2013-05-23 13:28:00,45.1,29.5,29.88,SE,141,0.0,3.6,54,0.00,,---,0.63,VWS V14.01,2013-05-23 19:28:00,
2013-05-23 13:29:00,45.1,29.5,29.88,SSE,153,0.0,3.6,54,0.00,,---,0.63,VWS V14.01,2013-05-23 19:29:00,
2013-05-23 13:31:00,45.3,29.7,29.88,ESE,119,3.6,3.6,54,0.00,,---,0.00,VWS V14.01,2013-05-23 19:31:00,
2013-05-23 13:32:00,45.3,29.7,29.88,ESE,119,0.0,3.6,54,0.00,,---,0.63,VWS V14.01,2013-05-23 19:32:00,
2013-05-23 13:34:00,45.3,29.2,29.88,ESE,119,0.0,3.6,53,0.00,,---,0.63,VWS V14.01,2013-05-23 19:34:00,
2013-05-23 13:36:00,45.3,28.8,29.88,South,191,2.7,3.6,52,0.00,,---,0.63,VWS V14.01,2013-05-23 19:36:00,
2013-05-23 13:37:00,45.3,28.8,29.88,SSE,155,2.7,3.6,52,0.00,,---,0.63,VWS V14.01,2013-05-23 19:37:00,
2013-05-23 13:39:00,45.3,28.8,29.88,SE,142,0.0,3.6,52,0.00,,---,0.63,VWS V14.01,2013-05-23 19:39:00,
2013-05-23 13:40:00,45.3,28.8,29.88,SE,142,0.0,3.6,52,0.00,,---,0.63,VWS V14.01,2013-05-23 19:40:00,
2013-05-23 13:41:00,45.5,29.4,29.88,SE,144,0.0,3.6,53,0.00,,---,0.00,VWS V14.01,2013-05-23 19:41:00,
2013-05-23 13:42:00,45.5,29.4,29.88,SE,145,0.0,3.6,53,0.00,,---,0.63,VWS V14.01,2013-05-23 19:42:00,
2013-05-23 13:43:00,45.7,29.5,29.88,SE,128,0.0,3.6,53,0.00,,---,0.63,VWS V14.01,2013-05-23 19:43:00,
2013-05-23 13:44:00,45.7,29.5,29.88,SE,126,0.0,3.6,53,0.00,,---,0.63,VWS V14.01,2013-05-23 19:44:00,
2013-05-23 13:45:00,45.9,29.7,29.88,ESE,120,3.6,3.6,53,0.00,,---,0.63,VWS V14.01,2013-05-23 19:45:00,
2013-05-23 13:46:00,45.9,29.7,29.88,SE,136,3.1,3.1,53,0.00,,---,0.63,VWS V14.01,2013-05-23 19:46:00,
2013-05-23 13:47:00,46.0,29.9,29.88,SE,125,2.7,3.1,53,0.00,,---,0.63,VWS V14.01,2013-05-23 19:47:00,
2013-05-23 13:48:00,46.0,29.9,29.88,SE,125,2.7,3.1,53,0.00,,---,0.63,VWS V14.01,2013-05-23 19:48:00,
2013-05-23 13:49:00,46.0,29.9,29.88,SE,125,2.2,3.1,53,0.00,,---,0.63,VWS V14.01,2013-05-23 19:49:00,
2013-05-23 13:50:00,46.0,29.4,29.88,SE,125,2.2,3.1,52,0.00,,---,0.63,VWS V14.01,2013-05-23 19:50:00,
2013-05-23 13:51:00,45.9,28.8,29.88,ESE,116,0.0,3.1,51,0.00,,---,0.63,VWS V14.01,2013-05-23 19:51:00,
2013-05-23 13:53:00,45.9,28.3,29.88,ESE,113,0.0,3.1,50,0.00,,---,0.63,VWS V14.01,2013-05-23 19:53:00,
2013-05-23 13:54:00,45.7,27.6,29.88,ESE,112,0.0,3.1,49,0.00,,---,0.63,VWS V14.01,2013-05-23 19:54:00,
2013-05-23 13:55:00,45.5,28.0,29.88,East,97,2.2,3.1,50,0.00,,---,0.63,VWS V14.01,2013-05-23 19:55:00,
2013-05-23 13:56:00,45.5,27.5,29.88,East,95,0.0,3.1,49,0.00,,---,0.63,VWS V14.01,2013-05-23 19:56:00,
2013-05-23 13:58:00,45.5,28.0,29.88,ESE,113,2.2,3.1,50,0.00,,---,0.63,VWS V14.01,2013-05-23 19:58:00,
2013-05-23 13:59:00,45.7,28.1,29.88,ESE,118,0.0,3.1,50,0.00,,---,0.63,VWS V14.01,2013-05-23 19:59:00,
2013-05-23 14:00:00,45.9,28.8,29.88,SE,133,2.7,3.1,51,0.00,,---,0.00,VWS V14.01,2013-05-23 20:00:00,
2013-05-23 14:01:00,45.9,28.8,29.88,SE,128,2.7,2.7,51,0.00,,---,0.63,VWS V14.01,2013-05-23 20:01:00,
2013-05-23 14:04:00,46.2,29.1,29.88,SE,128,0.0,2.7,51,0.00,,---,0.63,VWS V14.01,2013-05-23 20:04:00,
2013-05-23 14:05:00,46.4,28.8,29.88,SE,128,0.0,2.7,50,0.00,,---,0.63,VWS V14.01,2013-05-23 20:05:00,
2013-05-23 14:06:00,46.6,29.4,29.88,SE,138,2.7,3.6,51,0.00,,---,0.63,VWS V14.01,2013-05-23 20:06:00,
2013-05-23 14:09:00,46.9,29.3,29.88,SSE,159,0.0,3.6,50,0.00,,---,0.63,VWS V14.01,2013-05-23 20:09:00,
2013-05-23 14:11:00,46.8,27.6,29.88,South,175,0.0,3.6,47,0.00,,---,0.63,VWS V14.01,2013-05-23 20:11:00,
2013-05-23 14:14:00,47.1,29.0,29.88,ESE,113,3.1,3.6,49,0.00,,---,0.63,VWS V14.01,2013-05-23 20:14:00,
2013-05-23 14:15:00,47.3,29.1,29.88,ESE,113,2.7,3.6,49,0.00,,---,0.63,VWS V14.01,2013-05-23 20:15:00,
2013-05-23 14:16:00,47.3,28.6,29.88,East,97,2.7,3.1,48,0.00,,---,0.63,VWS V14.01,2013-05-23 20:16:00,
2013-05-23 14:17:00,47.3,28.1,29.88,East,87,2.2,3.1,47,0.00,,---,0.63,VWS V14.01,2013-05-23 20:17:00,
2013-05-23 14:19:00,47.5,28.8,29.88,East,81,0.0,3.1,48,0.00,,---,0.63,VWS V14.01,2013-05-23 20:19:00,
2013-05-23 14:20:00,47.5,28.8,29.88,East,79,2.2,3.1,48,0.00,,---,0.63,VWS V14.01,2013-05-23 20:20:00,
2013-05-23 14:21:00,47.5,28.8,29.88,ESE,107,2.7,3.1,48,0.00,,---,0.63,VWS V14.01,2013-05-23 20:21:00,
2013-05-23 14:22:00,47.5,28.8,29.88,ESE,107,2.2,3.1,48,0.00,,---,0.63,VWS V14.01,2013-05-23 20:22:00,
2013-05-23 14:25:00,47.5,27.8,29.88,NNE,16,3.6,4.0,46,0.00,,---,0.63,VWS V14.01,2013-05-23 20:25:00,
2013-05-23 14:26:00,47.3,26.5,29.88,North,6,3.1,4.9,44,0.00,,---,0.63,VWS V14.01,2013-05-23 20:26:00,
2013-05-23 14:28:00,47.3,26.5,29.88,NNE,20,4.5,6.3,44,0.00,,---,0.63,VWS V14.01,2013-05-23 20:28:00,
2013-05-23 14:30:00,47.1,26.3,29.88,NE,51,0.0,6.3,44,0.00,,---,0.63,VWS V14.01,2013-05-23 20:30:00,
2013-05-23 14:31:00,47.3,27.6,29.88,NE,56,2.7,2.7,46,0.00,,---,0.63,VWS V14.01,2013-05-23 20:31:00,
2013-05-23 14:33:00,47.3,27.6,29.88,NE,42,2.7,2.7,46,0.00,,---,0.63,VWS V14.01,2013-05-23 20:33:00,
2013-05-23 14:35:00,47.5,27.2,29.88,North,8,2.2,4.0,45,0.00,,---,0.63,VWS V14.01,2013-05-23 20:35:00,
2013-05-23 14:36:00,47.7,27.4,29.88,North,8,0.0,4.0,45,0.00,,---,0.63,VWS V14.01,2013-05-23 20:36:00,
2013-05-23 14:38:00,47.8,27.5,29.88,North,9,3.1,4.0,45,0.00,,---,0.63,VWS V14.01,2013-05-23 20:38:00,
2013-05-23 14:40:00,48.0,24.9,29.88,North,357,0.0,6.3,40,0.00,,---,0.63,VWS V14.01,2013-05-23 20:40:00,
2013-05-23 14:41:00,48.0,26.6,29.88,East,82,2.7,6.3,43,0.00,,---,0.63,VWS V14.01,2013-05-23 20:41:00,
2013-05-23 14:42:00,47.8,26.4,29.88,ENE,76,2.7,6.3,43,0.00,,---,0.63,VWS V14.01,2013-05-23 20:42:00,
2013-05-23 14:43:00,47.8,26.4,29.88,North,8,3.1,6.3,43,0.00,,---,0.63,VWS V14.01,2013-05-23 20:43:00,
2013-05-23 14:45:00,47.5,24.4,29.88,North,9,3.6,6.3,40,0.00,,---,0.00,VWS V14.01,2013-05-23 20:45:00,
2013-05-23 14:46:00,47.3,24.2,29.88,NNE,14,2.7,2.7,40,0.00,,---,0.63,VWS V14.01,2013-05-23 20:46:00,
2013-05-23 14:47:00,47.3,24.2,29.85,NNE,14,3.6,5.8,40,0.00,,---,0.63,VWS V14.01,2013-05-23 20:47:00,
2013-05-23 14:48:00,47.3,24.8,29.85,North,4,2.7,5.8,41,0.00,,---,0.63,VWS V14.01,2013-05-23 20:48:00,
2013-05-23 14:50:00,47.3,25.4,29.85,North,0,2.7,5.8,42,0.00,,---,0.63,VWS V14.01,2013-05-23 20:50:00,
2013-05-23 14:51:00,47.3,25.4,29.85,North,357,3.6,5.8,42,0.00,,---,0.63,VWS V14.01,2013-05-23 20:51:00,
2013-05-23 14:52:00,47.5,25.5,29.85,North,0,2.2,5.8,42,0.00,,---,0.63,VWS V14.01,2013-05-23 20:52:00,
2013-05-23 14:53:00,47.7,26.8,29.85,NE,42,4.9,5.8,44,0.00,,---,0.63,VWS V14.01,2013-05-23 20:53:00,
2013-05-23 14:55:00,48.2,27.3,29.85,East,97,3.6,5.8,44,0.00,,---,0.63,VWS V14.01,2013-05-23 20:55:00,
2013-05-23 14:56:00,48.4,26.9,29.85,East,100,4.0,6.3,43,0.00,,---,0.00,VWS V14.01,2013-05-23 20:56:00,
2013-05-23 14:57:00,48.4,26.9,29.85,SE,126,3.6,6.3,43,0.00,,---,0.63,VWS V14.01,2013-05-23 20:57:00,
2013-05-23 14:58:00,48.6,26.0,29.85,ESE,105,3.6,6.3,41,0.00,,---,0.63,VWS V14.01,2013-05-23 20:58:00,
2013-05-23 15:01:00,48.6,24.1,29.85,East,86,3.1,5.4,38,0.00,,---,0.63,VWS V14.01,2013-05-23 21:01:00,
2013-05-23 15:02:00,48.6,24.1,29.85,ESE,113,4.0,5.4,38,0.00,,---,0.63,VWS V14.01,2013-05-23 21:02:00,
2013-05-23 15:03:00,48.6,24.7,29.85,ENE,63,2.7,5.4,39,0.00,,---,0.63,VWS V14.01,2013-05-23 21:03:00,
2013-05-23 15:06:00,48.4,25.2,29.85,NE,56,0.0,5.4,40,0.00,,---,0.63,VWS V14.01,2013-05-23 21:06:00,
2013-05-23 15:07:00,48.6,25.4,29.85,ESE,106,2.7,5.4,40,0.00,,---,0.63,VWS V14.01,2013-05-23 21:07:00,
2013-05-23 15:08:00,48.6,25.4,29.85,ESE,106,0.0,5.4,40,0.00,,---,0.63,VWS V14.01,2013-05-23 21:08:00,
2013-05-23 15:11:00,49.1,25.8,29.85,North,0,3.1,5.4,40,0.00,,---,0.63,VWS V14.01,2013-05-23 21:11:00,
2013-05-23 15:13:00,49.3,26.6,29.85,North,349,3.6,5.4,41,0.00,,---,0.63,VWS V14.01,2013-05-23 21:13:00,
2013-05-23 15:14:00,49.3,26.6,29.85,NNW,333,3.1,5.4,41,0.00,,---,0.63,VWS V14.01,2013-05-23 21:14:00,
2013-05-23 15:17:00,49.5,26.8,29.88,NNW,333,0.0,0.0,41,0.00,,---,0.63,VWS V14.01,2013-05-23 21:17:00,
2013-05-23 15:18:00,49.6,26.9,29.88,NNW,336,3.1,3.1,41,0.00,,---,0.00,VWS V14.01,2013-05-23 21:18:00,
2013-05-23 15:19:00,49.6,26.3,29.88,North,0,3.1,4.9,40,0.00,,---,0.63,VWS V14.01,2013-05-23 21:19:00,
2013-05-23 15:22:00,50.0,27.2,29.88,WNW,301,3.6,4.9,41,0.00,,---,0.63,VWS V14.01,2013-05-23 21:22:00,
2013-05-23 15:23:00,50.0,27.2,29.88,NNW,327,3.6,4.9,41,0.00,,---,0.63,VWS V14.01,2013-05-23 21:23:00,
2013-05-23 15:24:00,50.2,26.8,29.88,NNW,328,2.7,4.9,40,0.00,,---,0.63,VWS V14.01,2013-05-23 21:24:00,
2013-05-23 15:25:00,50.2,26.2,29.88,NW,314,2.7,4.9,39,0.00,,---,0.63,VWS V14.01,2013-05-23 21:25:00,
2013-05-23 15:27:00,50.2,25.6,29.88,WNW,295,2.7,4.9,38,0.00,,---,0.63,VWS V14.01,2013-05-23 21:27:00,
2013-05-23 15:28:00,50.2,25.6,29.88,WNW,295,2.2,4.9,38,0.00,,---,0.63,VWS V14.01,2013-05-23 21:28:00,
2013-05-23 15:29:00,50.2,26.2,29.88,SSW,213,4.0,4.9,39,0.00,,---,0.63,VWS V14.01,2013-05-23 21:29:00,
2013-05-23 15:30:00,50.2,25.6,29.88,SW,232,4.0,4.9,38,0.00,,---,0.63,VWS V14.01,2013-05-23 21:30:00,
2013-05-23 15:32:00,50.0,25.4,29.85,WSW,252,0.0,3.1,38,0.00,,---,0.63,VWS V14.01,2013-05-23 21:32:00,
2013-05-23 15:33:00,50.2,26.2,29.85,WSW,252,0.0,3.1,39,0.00,,---,0.63,VWS V14.01,2013-05-23 21:33:00,
2013-05-23 15:34:00,50.0,26.6,29.85,North,357,3.6,5.8,40,0.00,,---,0.63,VWS V14.01,2013-05-23 21:34:00,
2013-05-23 15:35:00,50.0,26.0,29.85,NNE,23,3.6,5.8,39,0.00,,---,0.63,VWS V14.01,2013-05-23 21:35:00,
2013-05-23 15:37:00,49.6,25.7,29.85,NNE,16,4.0,5.8,39,0.00,,---,0.63,VWS V14.01,2013-05-23 21:37:00,
2013-05-23 15:38:00,49.5,25.5,29.85,North,10,4.0,5.8,39,0.00,,---,0.63,VWS V14.01,2013-05-23 21:38:00,
2013-05-23 15:40:00,49.3,25.4,29.85,East,85,2.2,5.8,39,0.00,,---,0.63,VWS V14.01,2013-05-23 21:40:00,
2013-05-23 15:43:00,49.1,26.4,29.85,NNE,31,4.5,5.8,41,0.00,,---,0.63,VWS V14.01,2013-05-23 21:43:00,
2013-05-23 15:45:00,49.1,27.0,29.85,NNE,20,3.6,5.8,42,0.00,,---,0.63,VWS V14.01,2013-05-23 21:45:00,
2013-05-23 15:48:00,49.1,25.8,29.88,NE,51,2.2,4.9,40,0.00,,---,0.63,VWS V14.01,2013-05-23 21:48:00,
2013-05-23 15:50:00,49.1,25.8,29.88,North,0,3.1,5.4,40,0.00,,---,0.63,VWS V14.01,2013-05-23 21:50:00,
2013-05-23 15:53:00,48.9,25.1,29.88,NW,325,2.7,5.4,39,0.00,,---,0.63,VWS V14.01,2013-05-23 21:53:00,
2013-05-23 15:55:00,49.1,27.0,29.88,NW,305,0.0,5.4,42,0.00,,---,0.00,VWS V14.01,2013-05-23 21:55:00,
2013-05-23 15:56:00,49.3,26.6,29.88,ESE,123,4.9,5.4,41,0.00,,---,0.63,VWS V14.01,2013-05-23 21:56:00,
2013-05-23 15:58:00,49.6,26.3,29.88,SE,125,2.7,5.4,40,0.00,,---,0.63,VWS V14.01,2013-05-23 21:58:00,
2013-05-23 16:00:00,50.0,26.6,29.88,SE,132,0.0,0.0,40,0.00,,---,0.00,VWS V14.01,2013-05-23 22:00:00,
2013-05-23 16:01:00,50.2,26.2,29.88,SE,132,0.0,2.2,39,0.00,,---,0.63,VWS V14.01,2013-05-23 22:01:00,
2013-05-23 16:03:00,50.5,27.1,29.88,SSE,161,2.7,2.7,40,0.00,,---,0.63,VWS V14.01,2013-05-23 22:03:00,
2013-05-23 16:04:00,50.7,26.7,29.88,South,176,2.2,2.7,39,0.00,,---,0.63,VWS V14.01,2013-05-23 22:04:00,
2013-05-23 16:05:00,50.9,26.2,29.88,North,357,5.8,5.8,38,0.00,,---,0.63,VWS V14.01,2013-05-23 22:05:00,
2013-05-23 16:06:00,50.9,26.2,29.88,North,357,5.8,5.8,38,0.00,,---,0.63,VWS V14.01,2013-05-23 22:06:00,
2013-05-23 16:08:00,50.7,26.0,29.88,NNE,16,6.3,8.1,38,0.00,,---,0.63,VWS V14.01,2013-05-23 22:08:00,
2013-05-23 16:09:00,50.7,26.0,29.88,NNE,12,4.9,8.1,38,0.00,,---,0.63,VWS V14.01,2013-05-23 22:09:00,
2013-05-23 16:10:00,50.4,25.7,29.88,East,91,2.7,8.1,38,0.00,,---,0.63,VWS V14.01,2013-05-23 22:10:00,
2013-05-23 16:11:00,50.4,25.7,29.88,East,91,2.2,8.1,38,0.00,,---,0.63,VWS V14.01,2013-05-23 22:11:00,
2013-05-23 16:13:00,50.2,25.6,29.88,NNE,21,0.0,8.1,38,0.00,,---,0.63,VWS V14.01,2013-05-23 22:13:00,
2013-05-23 16:14:00,50.2,25.6,29.88,NNE,21,0.0,8.1,38,0.00,,---,0.63,VWS V14.01,2013-05-23 22:14:00,
2013-05-23 16:15:00,50.4,25.7,29.88,NNE,19,2.7,2.7,38,0.00,,---,0.63,VWS V14.01,2013-05-23 22:15:00,
2013-05-23 16:16:00,50.4,25.7,29.88,NNE,19,4.0,4.0,38,0.00,,---,0.63,VWS V14.01,2013-05-23 22:16:00,
2013-05-23 16:17:00,50.4,26.4,29.88,North,4,3.1,4.0,39,0.00,,---,0.63,VWS V14.01,2013-05-23 22:17:00,
2013-05-23 16:18:00,50.5,26.5,29.88,NW,310,3.1,4.0,39,0.00,,---,0.63,VWS V14.01,2013-05-23 22:18:00,
2013-05-23 16:19:00,50.5,26.5,29.88,NW,310,2.7,4.0,39,0.00,,---,0.63,VWS V14.01,2013-05-23 22:19:00,
2013-05-23 16:21:00,50.7,26.7,29.88,WNW,298,3.6,4.9,39,0.00,,---,0.63,VWS V14.01,2013-05-23 22:21:00,
2013-05-23 16:22:00,50.9,26.8,29.88,North,1,4.9,4.9,39,0.00,,---,0.63,VWS V14.01,2013-05-23 22:22:00,
2013-05-23 16:23:00,51.1,27.0,29.88,North,5,3.1,4.9,39,0.00,,---,0.63,VWS V14.01,2013-05-23 22:23:00,
2013-05-23 16:24:00,51.1,26.4,29.88,NNE,12,4.9,4.9,38,0.00,,---,0.00,VWS V14.01,2013-05-23 22:24:00,
2013-05-23 16:26:00,51.1,26.4,29.88,North,357,3.1,4.9,38,0.00,,---,0.63,VWS V14.01,2013-05-23 22:26:00,
2013-05-23 16:27:00,50.9,26.2,29.88,NNW,345,3.1,4.9,38,0.00,,---,0.63,VWS V14.01,2013-05-23 22:27:00,
2013-05-23 16:28:00,50.9,26.2,29.88,NW,305,0.0,4.9,38,0.00,,---,0.63,VWS V14.01,2013-05-23 22:28:00,
2013-05-23 16:29:00,50.9,26.2,29.88,NW,305,2.7,4.9,38,0.00,,---,0.63,VWS V14.01,2013-05-23 22:29:00,
2013-05-23 16:31:00,50.9,26.2,29.88,North,9,4.9,4.9,38,0.00,,---,0.63,VWS V14.01,2013-05-23 22:31:00,
2013-05-23 16:32:00,50.9,26.2,29.88,North,10,3.6,4.9,38,0.00,,---,0.63,VWS V14.01,2013-05-23 22:32:00,
2013-05-23 16:33:00,50.7,26.0,29.88,NNE,16,4.0,4.9,38,0.00,,---,0.63,VWS V14.01,2013-05-23 22:33:00,
2013-05-23 16:34:00,50.5,25.2,29.88,North,7,3.1,4.9,37,0.00,,---,0.63,VWS V14.01,2013-05-23 22:34:00,
2013-05-23 16:36:00,50.4,25.7,29.88,NNE,14,2.7,5.8,38,0.00,,---,0.63,VWS V14.01,2013-05-23 22:36:00,
2013-05-23 16:37:00,50.4,25.7,29.88,NNW,336,2.7,5.8,38,0.00,,---,0.63,VWS V14.01,2013-05-23 22:37:00,
2013-05-23 16:39:00,50.2,25.6,29.88,North,1,5.4,5.8,38,0.00,,---,0.63,VWS V14.01,2013-05-23 22:39:00,
2013-05-23 16:42:00,49.8,25.9,29.88,North,9,3.1,6.3,39,0.00,,---,0.63,VWS V14.01,2013-05-23 22:42:00,
2013-05-23 16:44:00,49.6,25.7,29.88,ENE,63,2.2,6.3,39,0.00,,---,0.63,VWS V14.01,2013-05-23 22:44:00,
2013-05-23 16:47:00,49.8,26.5,29.88,NNE,32,2.7,4.0,40,0.00,,---,0.63,VWS V14.01,2013-05-23 22:47:00,
2013-05-23 16:48:00,49.6,25.7,29.88,NNE,13,3.1,4.0,39,0.00,,---,0.63,VWS V14.01,2013-05-23 22:48:00,
2013-05-23 16:49:00,49.6,25.7,29.88,North,3,4.0,4.0,39,0.00,,---,0.63,VWS V14.01,2013-05-23 22:49:00,
2013-05-23 16:50:00,49.6,25.7,29.88,North,357,3.6,4.0,39,0.00,,---,0.63,VWS V14.01,2013-05-23 22:50:00,
2013-05-23 16:52:00,49.6,25.7,29.88,North,7,3.6,4.0,39,0.00,,---,0.00,VWS V14.01,2013-05-23 22:52:00,
2013-05-23 16:53:00,49.5,25.5,29.88,North,2,3.1,4.0,39,0.00,,---,0.00,VWS V14.01,2013-05-23 22:53:00,
2013-05-23 16:54:00,49.5,25.5,29.88,North,6,3.6,4.0,39,0.00,,---,0.00,VWS V14.01,2013-05-23 22:54:00,
2013-05-23 16:55:00,49.5,26.2,29.88,North,6,2.2,4.0,40,0.00,,---,0.63,VWS V14.01,2013-05-23 22:55:00,
2013-05-23 16:57:00,49.5,25.5,29.88,North,11,3.1,4.0,39,0.00,,---,0.00,VWS V14.01,2013-05-23 22:57:00,
2013-05-23 16:58:00,49.5,26.2,29.88,North,11,2.7,4.0,40,0.00,,---,0.63,VWS V14.01,2013-05-23 22:58:00,
2013-05-23 16:59:00,49.5,26.2,29.88,NNE,16,2.7,4.0,40,0.00,,---,0.63,VWS V14.01,2013-05-23 22:59:00,
2013-05-23 17:00:00,49.5,26.2,29.88,NNE,16,2.7,4.0,40,0.00,,---,0.63,VWS V14.01,2013-05-23 23:00:00,
2013-05-23 17:02:00,49.5,25.5,29.88,NNE,22,0.0,3.6,39,0.00,,---,0.63,VWS V14.01,2013-05-23 23:02:00,
2013-05-23 17:03:00,49.6,25.7,29.88,NNE,22,0.0,3.6,39,0.00,,---,0.63,VWS V14.01,2013-05-23 23:03:00,
2013-05-23 17:05:00,49.8,26.5,29.88,NNE,27,0.0,3.6,40,0.00,,---,0.00,VWS V14.01,2013-05-23 23:05:00,
2013-05-23 17:07:00,50.2,26.8,29.88,North,357,3.1,4.0,40,0.00,,---,0.63,VWS V14.01,2013-05-23 23:07:00,
2013-05-23 17:08:00,50.2,26.2,29.88,North,0,4.0,4.9,39,0.00,,---,0.63,VWS V14.01,2013-05-23 23:08:00,
2013-05-23 17:10:00,50.2,26.2,29.88,North,3,5.4,5.4,39,0.00,,---,0.63,VWS V14.01,2013-05-23 23:10:00,
2013-05-23 17:13:00,50.2,26.2,29.88,North,4,3.1,5.4,39,0.00,,---,0.63,VWS V14.01,2013-05-23 23:13:00,
2013-05-23 17:15:00,50.2,26.2,29.88,North,9,3.1,5.4,39,0.00,,---,0.63,VWS V14.01,2013-05-23 23:15:00,
2013-05-23 17:16:00,50.2,26.2,29.88,North,0,3.1,3.6,39,0.00,,---,0.63,VWS V14.01,2013-05-23 23:16:00,
2013-05-23 17:18:00,50.2,26.2,29.88,NNW,348,2.7,5.4,39,0.00,,---,0.63,VWS V14.01,2013-05-23 23:18:00,
2013-05-23 17:19:00,50.2,26.2,29.88,North,6,4.9,5.4,39,0.00,,---,0.63,VWS V14.01,2013-05-23 23:19:00,
2013-05-23 17:20:00,50.2,26.2,29.88,North,0,4.9,5.4,39,0.00,,---,0.63,VWS V14.01,2013-05-23 23:20:00,
2013-05-23 17:21:00,50.2,26.2,29.88,North,0,2.2,5.4,39,0.00,,---,0.63,VWS V14.01,2013-05-23 23:21:00,
2013-05-23 17:23:00,50.0,26.0,29.88,NE,39,2.2,5.4,39,0.00,,---,0.00,VWS V14.01,2013-05-23 23:23:00,
2013-05-23 17:24:00,50.0,26.0,29.88,NNE,23,3.1,5.4,39,0.00,,---,0.63,VWS V14.01,2013-05-23 23:24:00,
2013-05-23 17:26:00,50.0,26.0,29.88,North,6,3.1,5.4,39,0.00,,---,0.63,VWS V14.01,2013-05-23 23:26:00,
2013-05-23 17:28:00,49.8,25.9,29.88,North,7,0.0,5.4,39,0.00,,---,0.00,VWS V14.01,2013-05-23 23:28:00,
2013-05-23 17:30:00,49.6,25.7,29.88,North,6,4.0,5.4,39,0.00,,---,0.00,VWS V14.01,2013-05-23 23:30:00,
2013-05-23 17:31:00,49.6,25.7,29.88,NNE,13,4.0,4.0,39,0.00,,---,0.63,VWS V14.01,2013-05-23 23:31:00,
2013-05-23 17:32:00,49.6,25.7,29.88,NNE,14,2.7,4.0,39,0.00,,---,0.63,VWS V14.01,2013-05-23 23:32:00,
2013-05-23 17:33:00,49.5,25.5,29.88,North,2,2.7,4.0,39,0.00,,---,0.63,VWS V14.01,2013-05-23 23:33:00,
2013-05-23 17:35:00,49.6,26.3,29.88,North,6,3.1,4.0,40,0.00,,---,0.63,VWS V14.01,2013-05-23 23:35:00,
2013-05-23 17:36:00,49.6,26.3,29.88,North,7,2.2,4.0,40,0.00,,---,0.63,VWS V14.01,2013-05-23 23:36:00,
2013-05-23 17:37:00,49.8,27.1,29.88,North,5,3.1,4.0,41,0.00,,---,0.63,VWS V14.01,2013-05-23 23:37:00,
2013-05-23 17:38:00,49.6,26.3,29.88,North,0,4.0,4.5,40,0.00,,---,0.63,VWS V14.01,2013-05-23 23:38:00,
2013-05-23 17:40:00,49.8,25.9,29.88,NNE,30,4.9,4.9,39,0.00,,---,0.63,VWS V14.01,2013-05-23 23:40:00,
2013-05-23 17:41:00,49.8,25.9,29.88,NNE,28,2.7,4.9,39,0.00,,---,0.63,VWS V14.01,2013-05-23 23:41:00,
2013-05-23 17:42:00,49.8,25.9,29.88,North,0,3.6,4.9,39,0.00,,---,0.63,VWS V14.01,2013-05-23 23:42:00,
2013-05-23 17:44:00,49.8,25.9,29.88,North,4,3.1,5.4,39,0.00,,---,0.63,VWS V14.01,2013-05-23 23:44:00,
2013-05-23 17:45:00,49.8,25.9,29.88,North,1,3.1,5.4,39,0.00,,---,0.63,VWS V14.01,2013-05-23 23:45:00,
2013-05-23 17:46:00,49.8,26.5,29.88,North,350,2.7,4.9,40,0.00,,---,0.63,VWS V14.01,2013-05-23 23:46:00,
2013-05-23 17:47:00,49.8,26.5,29.88,North,2,4.0,4.9,40,0.00,,---,0.63,VWS V14.01,2013-05-23 23:47:00,
2013-05-23 17:49:00,50.0,26.0,29.88,North,0,2.7,4.9,39,0.00,,---,0.63,VWS V14.01,2013-05-23 23:49:00,
2013-05-23 17:50:00,49.8,26.5,29.88,North,1,4.0,4.9,40,0.00,,---,0.63,VWS V14.01,2013-05-23 23:50:00,
2013-05-23 17:51:00,49.8,25.9,29.88,North,1,2.2,4.9,39,0.00,,---,0.63,VWS V14.01,2013-05-23 23:51:00,
2013-05-23 17:52:00,49.8,25.9,29.88,North,1,2.2,4.9,39,0.00,,---,0.63,VWS V14.01,2013-05-23 23:52:00,
2013-05-23 17:54:00,49.8,26.5,29.88,North,357,2.7,4.9,40,0.00,,---,0.63,VWS V14.01,2013-05-23 23:54:00,
2013-05-23 17:56:00,50.0,26.6,29.88,NNE,16,4.0,4.9,40,0.00,,---,0.63,VWS V14.01,2013-05-23 23:56:00,
2013-05-23 17:57:00,49.8,26.5,29.88,NNE,16,2.7,4.9,40,0.00,,---,0.63,VWS V14.01,2013-05-23 23:57:00,
2013-05-23 18:00:00,50.0,26.6,29.88,North,0,3.6,4.9,40,0.00,,---,0.63,VWS V14.01,2013-05-24 00:00:00,
2013-05-23 18:01:00,50.0,26.6,29.88,NE,41,3.1,4.0,40,0.00,,---,0.63,VWS V14.01,2013-05-24 00:01:00,
2013-05-23 18:02:00,50.0,26.0,29.88,North,9,3.1,4.0,39,0.00,,---,0.63,VWS V14.01,2013-05-24 00:02:00,
2013-05-23 18:03:00,49.8,25.9,29.88,North,9,2.7,4.0,39,0.00,,---,0.63,VWS V14.01,2013-05-24 00:03:00,
2013-05-23 18:05:00,49.8,25.9,29.88,NNW,343,2.7,4.9,39,0.00,,---,0.63,VWS V14.01,2013-05-24 00:05:00,
2013-05-23 18:06:00,49.6,25.7,29.88,North,357,2.7,4.9,39,0.00,,---,0.63,VWS V14.01,2013-05-24 00:06:00,
2013-05-23 18:07:00,49.6,25.7,29.88,NNW,348,2.7,4.9,39,0.00,,---,0.63,VWS V14.01,2013-05-24 00:07:00,
2013-05-23 18:08:00,49.6,26.3,29.88,NNW,335,2.7,4.9,40,0.00,,---,0.63,VWS V14.01,2013-05-24 00:08:00,
2013-05-23 18:10:00,49.6,25.7,29.88,NNW,343,3.1,4.9,39,0.00,,---,0.00,VWS V14.01,2013-05-24 00:10:00,
2013-05-23 18:11:00,49.6,25.7,29.88,North,357,3.6,4.9,39,0.00,,---,0.63,VWS V14.01,2013-05-24 00:11:00,
2013-05-23 18:12:00,49.6,25.7,29.88,North,357,2.7,4.9,39,0.00,,---,0.63,VWS V14.01,2013-05-24 00:12:00,
2013-05-23 18:13:00,49.5,24.9,29.88,NNW,346,3.6,4.9,38,0.00,,---,0.63,VWS V14.01,2013-05-24 00:13:00,
2013-05-23 18:16:00,49.3,24.8,29.88,North,357,2.7,3.6,38,0.00,,---,0.63,VWS V14.01,2013-05-24 00:16:00,
2013-05-23 18:17:00,49.3,24.8,29.88,North,0,3.6,3.6,38,0.00,,---,0.63,VWS V14.01,2013-05-24 00:17:00,
2013-05-23 18:18:00,49.1,24.6,29.88,NNW,332,2.7,3.6,38,0.00,,---,0.63,VWS V14.01,2013-05-24 00:18:00,
2013-05-23 18:21:00,49.1,24.6,29.88,North,0,2.2,4.0,38,0.00,,---,0.63,VWS V14.01,2013-05-24 00:21:00,
2013-05-23 18:23:00,48.9,25.1,29.88,North,0,0.0,4.0,39,0.00,,---,0.63,VWS V14.01,2013-05-24 00:23:00,
2013-05-23 18:24:00,48.9,25.1,29.88,North,0,0.0,4.0,39,0.00,,---,0.63,VWS V14.01,2013-05-24 00:24:00,
2013-05-23 18:26:00,48.7,24.3,29.88,North,6,3.1,4.0,38,0.00,,---,0.63,VWS V14.01,2013-05-24 00:26:00,
2013-05-23 18:28:00,48.7,24.3,29.88,North,3,4.0,5.8,38,0.00,,---,0.63,VWS V14.01,2013-05-24 00:28:00,
2013-05-23 18:29:00,48.6,24.1,29.88,North,0,4.9,5.8,38,0.00,,---,0.63,VWS V14.01,2013-05-24 00:29:00,
2013-05-23 18:31:00,48.4,24.6,29.88,North,7,0.0,2.2,39,0.00,,---,0.00,VWS V14.01,2013-05-24 00:31:00,
2013-05-23 18:32:00,48.4,24.6,29.88,North,7,0.0,2.2,39,0.00,,---,0.63,VWS V14.01,2013-05-24 00:32:00,
2013-05-23 18:33:00,48.4,25.8,29.88,North,7,2.2,2.7,41,0.00,,---,0.63,VWS V14.01,2013-05-24 00:33:00,
2013-05-23 18:34:00,48.4,25.8,29.88,North,7,2.2,2.7,41,0.00,,---,0.63,VWS V14.01,2013-05-24 00:34:00,
2013-05-23 18:35:00,48.2,25.6,29.88,North,7,0.0,2.7,41,0.00,,---,0.63,VWS V14.01,2013-05-24 00:35:00,
2013-05-23 18:36:00,48.0,25.5,29.88,NNW,341,2.7,3.1,41,0.00,,---,0.63,VWS V14.01,2013-05-24 00:36:00,
2013-05-23 18:37:00,48.0,25.5,29.88,NNW,327,4.0,4.0,41,0.00,,---,0.63,VWS V14.01,2013-05-24 00:37:00,
2013-05-23 18:39:00,48.0,25.5,29.88,NW,320,2.2,4.0,41,0.00,,---,0.63,VWS V14.01,2013-05-24 00:39:00,
2013-05-23 18:40:00,48.0,26.0,29.88,WNW,298,3.1,4.0,42,0.00,,---,0.63,VWS V14.01,2013-05-24 00:40:00,
2013-05-23 18:41:00,47.8,25.9,29.88,WNW,298,0.0,4.0,42,0.00,,---,0.63,VWS V14.01,2013-05-24 00:41:00,
2013-05-23 18:43:00,47.8,25.9,29.88,WNW,298,0.0,4.0,42,0.00,,---,0.00,VWS V14.01,2013-05-24 00:43:00,
2013-05-23 18:44:00,47.8,25.9,29.88,WNW,298,3.1,4.0,42,0.00,,---,0.63,VWS V14.01,2013-05-24 00:44:00,
2013-05-23 18:45:00,47.8,26.4,29.88,North,7,3.6,4.0,43,0.00,,---,0.63,VWS V14.01,2013-05-24 00:45:00,
2013-05-23 18:47:00,47.7,24.5,29.88,North,353,2.7,6.3,40,0.00,,---,0.63,VWS V14.01,2013-05-24 00:47:00,
2013-05-23 18:48:00,47.7,25.1,29.88,WNW,301,3.1,6.3,41,0.00,,---,0.63,VWS V14.01,2013-05-24 00:48:00,
2013-05-23 18:49:00,47.7,25.7,29.88,WNW,301,2.2,6.3,42,0.00,,---,0.63,VWS V14.01,2013-05-24 00:49:00,
2013-05-23 18:50:00,47.7,26.3,29.88,WNW,301,0.0,6.3,43,0.00,,---,0.63,VWS V14.01,2013-05-24 00:50:00,
2013-05-23 18:52:00,47.5,26.1,29.88,WNW,301,0.0,6.3,43,0.00,,---,0.00,VWS V14.01,2013-05-24 00:52:00,
2013-05-23 18:53:00,47.5,26.1,29.88,WNW,301,0.0,6.3,43,0.00,,---,0.63,VWS V14.01,2013-05-24 00:53:00,
2013-05-23 18:54:00,47.7,28.4,29.88,WNW,301,0.0,6.3,47,0.00,,---,0.63,VWS V14.01,2013-05-24 00:54:00,
2013-05-23 18:55:00,47.5,28.8,29.88,WNW,293,3.6,6.3,48,0.00,,---,0.63,VWS V14.01,2013-05-24 00:55:00,
2013-05-23 18:57:00,47.3,28.6,29.88,WNW,293,0.0,6.3,48,0.00,,---,0.63,VWS V14.01,2013-05-24 00:57:00,
2013-05-23 18:58:00,47.3,28.6,29.88,WNW,293,0.0,6.3,48,0.00,,---,0.63,VWS V14.01,2013-05-24 00:58:00,
2013-05-23 18:59:00,47.3,28.6,29.88,WNW,293,0.0,6.3,48,0.00,,---,0.63,VWS V14.01,2013-05-24 00:59:00,
2013-05-23 19:00:00,47.3,28.6,29.88,WNW,293,0.0,6.3,48,0.00,,---,0.00,VWS V14.01,2013-05-24 01:00:00,
2013-05-23 19:02:00,47.3,28.1,29.88,WNW,293,0.0,2.2,47,0.00,,---,0.00,VWS V14.01,2013-05-24 01:02:00,
2013-05-23 19:04:00,47.5,28.3,29.88,WNW,293,0.0,2.2,47,0.00,,---,0.63,VWS V14.01,2013-05-24 01:04:00,
2013-05-23 19:05:00,47.5,27.8,29.88,WNW,293,2.7,2.7,46,0.00,,---,0.63,VWS V14.01,2013-05-24 01:05:00,
2013-05-23 19:07:00,47.5,28.3,29.88,WNW,293,2.7,2.7,47,0.00,,---,0.63,VWS V14.01,2013-05-24 01:07:00,
2013-05-23 19:09:00,47.5,28.3,29.88,WNW,293,2.2,2.7,47,0.00,,---,0.63,VWS V14.01,2013-05-24 01:09:00,
2013-05-23 19:10:00,47.5,28.3,29.88,NNW,327,2.2,2.7,47,0.00,,---,0.63,VWS V14.01,2013-05-24 01:10:00,
2013-05-23 19:12:00,47.5,28.8,29.88,NNW,327,0.0,2.7,48,0.00,,---,0.63,VWS V14.01,2013-05-24 01:12:00,
2013-05-23 19:14:00,47.5,28.8,29.88,NNW,327,2.2,2.7,48,0.00,,---,0.63,VWS V14.01,2013-05-24 01:14:00,
2013-05-23 19:15:00,47.5,28.8,29.88,NNW,327,0.0,2.7,48,0.00,,---,0.63,VWS V14.01,2013-05-24 01:15:00,
2013-05-23 19:16:00,47.3,28.6,29.88,NNW,327,0.0,0.0,48,0.00,,---,0.63,VWS V14.01,2013-05-24 01:16:00,
2013-05-23 19:17:00,47.3,28.6,29.88,NNW,327,0.0,0.0,48,0.00,,---,0.63,VWS V14.01,2013-05-24 01:17:00,
2013-05-23 19:19:00,47.3,29.6,29.88,NNW,327,0.0,0.0,50,0.00,,---,0.63,VWS V14.01,2013-05-24 01:19:00,
2013-05-23 19:20:00,47.1,29.9,29.88,NNW,327,0.0,0.0,51,0.00,,---,0.63,VWS V14.01,2013-05-24 01:20:00,
2013-05-23 19:21:00,47.1,30.4,29.88,NNW,327,0.0,0.0,52,0.00,,---,0.63,VWS V14.01,2013-05-24 01:21:00,
2013-05-23 19:23:00,46.9,29.8,29.88,NNW,327,0.0,0.0,51,0.00,,---,0.00,VWS V14.01,2013-05-24 01:23:00,
2013-05-23 19:24:00,46.9,29.8,29.88,NNW,327,0.0,0.0,51,0.00,,---,0.63,VWS V14.01,2013-05-24 01:24:00,
2013-05-23 19:25:00,46.9,29.8,29.88,WNW,283,2.7,2.7,51,0.00,,---,0.63,VWS V14.01,2013-05-24 01:25:00,
2013-05-23 19:26:00,46.8,29.6,29.88,WNW,283,0.0,3.1,51,0.00,,---,0.63,VWS V14.01,2013-05-24 01:26:00,
2013-05-23 19:28:00,46.6,29.0,29.88,WNW,283,0.0,3.1,50,0.00,,---,0.63,VWS V14.01,2013-05-24 01:28:00,
2013-05-23 19:29:00,46.4,28.8,29.88,WNW,283,0.0,3.1,50,0.00,,---,0.63,VWS V14.01,2013-05-24 01:29:00,
2013-05-23 19:30:00,46.4,28.3,29.88,WNW,283,0.0,3.1,49,0.00,,---,0.63,VWS V14.01,2013-05-24 01:30:00,
2013-05-23 19:31:00,46.2,28.6,29.88,WNW,283,0.0,0.0,50,0.00,,---,0.63,VWS V14.01,2013-05-24 01:31:00,
2013-05-23 19:33:00,46.0,28.5,29.88,WNW,283,2.2,2.7,50,0.00,,---,0.63,VWS V14.01,2013-05-24 01:33:00,
2013-05-23 19:35:00,45.9,28.8,29.88,WNW,283,0.0,2.7,51,0.00,,---,0.63,VWS V14.01,2013-05-24 01:35:00,
2013-05-23 19:37:00,45.7,28.1,29.88,WNW,283,0.0,2.7,50,0.00,,---,0.63,VWS V14.01,2013-05-24 01:37:00,
2013-05-23 19:39:00,45.5,28.0,29.88,WNW,283,0.0,2.7,50,0.00,,---,0.00,VWS V14.01,2013-05-24 01:39:00,
2013-05-23 19:40:00,45.5,28.4,29.88,WNW,283,0.0,2.7,51,0.00,,---,0.63,VWS V14.01,2013-05-24 01:40:00,
2013-05-23 19:41:00,45.5,28.4,29.88,WNW,283,0.0,2.7,51,0.00,,---,0.63,VWS V14.01,2013-05-24 01:41:00,
2013-05-23 19:42:00,45.5,28.4,29.88,WNW,283,0.0,2.7,51,0.00,,---,0.63,VWS V14.01,2013-05-24 01:42:00,
2013-05-23 19:44:00,45.3,28.8,29.88,WNW,283,0.0,2.7,52,0.00,,---,0.63,VWS V14.01,2013-05-24 01:44:00,
2013-05-23 19:45:00,45.3,29.2,29.88,WNW,283,0.0,2.7,53,0.00,,---,0.63,VWS V14.01,2013-05-24 01:45:00,
2013-05-23 19:46:00,45.3,29.2,29.88,WNW,283,0.0,0.0,53,0.00,,---,0.63,VWS V14.01,2013-05-24 01:46:00,
2013-05-23 19:47:00,45.3,28.8,29.88,WNW,283,0.0,0.0,52,0.00,,---,0.63,VWS V14.01,2013-05-24 01:47:00,
2013-05-23 19:49:00,45.1,29.0,29.88,WNW,283,0.0,0.0,53,0.00,,---,0.00,VWS V14.01,2013-05-24 01:49:00,
2013-05-23 19:50:00,45.1,29.0,29.88,WNW,283,0.0,0.0,53,0.00,,---,0.63,VWS V14.01,2013-05-24 01:50:00,
2013-05-23 19:51:00,45.1,29.0,29.88,WNW,283,0.0,0.0,53,0.00,,---,0.63,VWS V14.01,2013-05-24 01:51:00,
2013-05-23 19:52:00,45.0,28.4,29.88,WNW,283,0.0,0.0,52,0.00,,---,0.63,VWS V14.01,2013-05-24 01:52:00,
2013-05-23 19:54:00,45.0,28.4,29.88,WNW,283,0.0,0.0,52,0.00,,---,0.63,VWS V14.01,2013-05-24 01:54:00,
2013-05-23 19:56:00,44.8,28.2,29.88,WNW,283,2.7,2.7,52,0.00,,---,0.63,VWS V14.01,2013-05-24 01:56:00,
2013-05-23 19:58:00,44.8,28.2,29.88,WNW,283,2.2,3.1,52,0.00,,---,0.63,VWS V14.01,2013-05-24 01:58:00,
2013-05-23 19:59:00,44.6,28.1,29.88,WNW,283,2.2,3.1,52,0.00,,---,0.63,VWS V14.01,2013-05-24 01:59:00,
2013-05-23 20:01:00,44.6,28.1,29.88,WNW,283,0.0,2.2,52,0.00,,---,0.00,VWS V14.01,2013-05-24 02:01:00,
2013-05-23 20:02:00,44.6,28.1,29.88,WNW,283,0.0,2.2,52,0.00,,---,0.63,VWS V14.01,2013-05-24 02:02:00,
2013-05-23 20:03:00,44.4,27.4,29.88,WNW,283,2.7,2.7,51,0.00,,---,0.63,VWS V14.01,2013-05-24 02:03:00,
2013-05-23 20:04:00,44.4,27.4,29.88,WNW,283,0.0,2.7,51,0.00,,---,0.63,VWS V14.01,2013-05-24 02:04:00,
2013-05-23 20:06:00,44.2,27.7,29.88,WNW,283,0.0,2.7,52,0.00,,---,0.63,VWS V14.01,2013-05-24 02:06:00,
2013-05-23 20:07:00,44.2,27.7,29.88,WNW,283,2.2,2.7,52,0.00,,---,0.63,VWS V14.01,2013-05-24 02:07:00,
2013-05-23 20:09:00,44.2,27.7,29.88,WNW,283,0.0,2.7,52,0.00,,---,0.63,VWS V14.01,2013-05-24 02:09:00,
2013-05-23 20:10:00,44.2,27.7,29.88,WNW,283,0.0,2.7,52,0.00,,---,0.63,VWS V14.01,2013-05-24 02:10:00,
2013-05-23 20:12:00,44.2,27.7,29.88,WNW,283,0.0,2.7,52,0.00,,---,0.63,VWS V14.01,2013-05-24 02:12:00,
2013-05-23 20:15:00,44.1,27.6,29.88,West,273,0.0,2.7,52,0.00,,---,0.63,VWS V14.01,2013-05-24 02:15:00,
2013-05-23 20:17:00,44.1,27.6,29.88,West,273,0.0,0.0,52,0.00,,---,0.63,VWS V14.01,2013-05-24 02:17:00,
2013-05-23 20:20:00,43.9,26.9,29.88,NNW,338,2.7,3.1,51,0.00,,---,0.63,VWS V14.01,2013-05-24 02:20:00,
2013-05-23 20:21:00,43.9,26.9,29.88,NNW,338,2.2,3.1,51,0.00,,---,0.63,VWS V14.01,2013-05-24 02:21:00,
2013-05-23 20:22:00,43.9,26.9,29.88,NNW,338,0.0,3.1,51,0.00,,---,0.63,VWS V14.01,2013-05-24 02:22:00,
2013-05-23 20:25:00,43.9,26.9,29.88,WNW,285,2.7,3.1,51,0.00,,---,0.63,VWS V14.01,2013-05-24 02:25:00,
2013-05-23 20:26:00,43.9,26.9,29.88,WNW,285,0.0,3.1,51,0.00,,---,0.63,VWS V14.01,2013-05-24 02:26:00,
2013-05-23 20:27:00,43.9,26.9,29.88,WNW,285,0.0,3.1,51,0.00,,---,0.63,VWS V14.01,2013-05-24 02:27:00,
2013-05-23 20:28:00,43.9,26.9,29.88,NW,323,3.1,3.1,51,0.00,,---,0.63,VWS V14.01,2013-05-24 02:28:00,
2013-05-23 20:30:00,43.7,26.8,29.88,NW,312,2.2,3.1,51,0.00,,---,0.63,VWS V14.01,2013-05-24 02:30:00,
2013-05-23 20:31:00,43.7,26.8,29.88,NW,312,2.7,2.7,51,0.00,,---,0.63,VWS V14.01,2013-05-24 02:31:00,
2013-05-23 20:33:00,43.7,26.8,29.88,NW,312,0.0,2.7,51,0.00,,---,0.63,VWS V14.01,2013-05-24 02:33:00,
2013-05-23 20:35:00,43.7,26.8,29.88,NW,312,0.0,2.7,51,0.00,,---,0.63,VWS V14.01,2013-05-24 02:35:00,
2013-05-23 20:37:00,43.7,26.8,29.88,NW,312,2.2,2.7,51,0.00,,---,0.63,VWS V14.01,2013-05-24 02:37:00,
2013-05-23 20:38:00,43.7,27.2,29.88,NW,312,0.0,2.7,52,0.00,,---,0.63,VWS V14.01,2013-05-24 02:38:00,
2013-05-23 20:41:00,43.7,27.7,29.88,WNW,286,3.1,3.6,53,0.00,,---,0.63,VWS V14.01,2013-05-24 02:41:00,
2013-05-23 20:42:00,43.5,28.0,29.88,WNW,282,3.1,3.6,54,0.00,,---,0.63,VWS V14.01,2013-05-24 02:42:00,
2013-05-23 20:43:00,43.5,28.0,29.88,West,270,3.6,3.6,54,0.00,,---,0.63,VWS V14.01,2013-05-24 02:43:00,
2013-05-23 20:44:00,43.5,28.0,29.88,SW,231,4.0,4.5,54,0.00,,---,0.63,VWS V14.01,2013-05-24 02:44:00,
2013-05-23 20:46:00,43.3,28.7,29.91,SSW,207,5.8,5.8,56,0.00,,---,0.63,VWS V14.01,2013-05-24 02:46:00,
2013-05-23 20:47:00,43.3,28.3,29.91,WNW,289,5.8,6.3,55,0.00,,---,0.63,VWS V14.01,2013-05-24 02:47:00,
2013-05-23 20:48:00,43.3,28.3,29.91,SSW,196,4.0,7.6,55,0.00,,---,0.00,VWS V14.01,2013-05-24 02:48:00,
2013-05-23 20:49:00,43.3,28.7,29.91,SW,221,3.6,8.3,56,0.00,,---,0.63,VWS V14.01,2013-05-24 02:49:00,
2013-05-23 20:51:00,43.3,29.6,29.91,WSW,258,6.3,11.0,58,0.00,,---,0.00,VWS V14.01,2013-05-24 02:51:00,
2013-05-23 20:53:00,42.8,30.3,29.91,WSW,246,4.9,11.0,61,0.00,,---,0.63,VWS V14.01,2013-05-24 02:53:00,
2013-05-23 20:54:00,42.4,30.4,29.91,WSW,255,4.9,11.0,62,0.00,,---,0.63,VWS V14.01,2013-05-24 02:54:00,
2013-05-23 20:56:00,41.9,31.4,29.91,WSW,237,4.0,11.0,66,0.04,,---,0.67,VWS V14.01,2013-05-24 02:56:00,
2013-05-23 20:58:00,41.5,31.8,29.91,SSW,211,5.8,11.0,68,0.04,,---,0.67,VWS V14.01,2013-05-24 02:58:00,
2013-05-23 20:59:00,41.2,31.8,29.91,SW,230,4.9,11.0,69,0.04,,---,0.00,VWS V14.01,2013-05-24 02:59:00,
2013-05-23 21:01:00,40.8,32.5,29.94,SW,222,3.1,4.9,72,0.04,,---,0.67,VWS V14.01,2013-05-24 03:01:00,
2013-05-23 21:03:00,40.6,32.3,29.94,South,183,6.3,6.3,72,0.04,,---,0.67,VWS V14.01,2013-05-24 03:03:00,
2013-05-23 21:05:00,40.5,32.8,29.94,SW,226,2.7,6.3,74,0.04,,---,0.67,VWS V14.01,2013-05-24 03:05:00,
2013-05-23 21:06:00,40.3,33.3,29.94,West,263,4.5,6.3,76,0.08,,---,0.71,VWS V14.01,2013-05-24 03:06:00,
2013-05-23 21:08:00,40.3,33.7,29.94,WSW,255,4.0,6.3,77,0.08,,---,0.71,VWS V14.01,2013-05-24 03:08:00,
2013-05-23 21:09:00,40.3,33.7,29.94,SSW,203,4.0,6.3,77,0.08,,---,0.00,VWS V14.01,2013-05-24 03:09:00,
2013-05-23 21:10:00,40.1,33.5,29.94,West,263,3.1,6.3,77,0.08,,---,0.71,VWS V14.01,2013-05-24 03:10:00,
2013-05-23 21:12:00,39.9,33.3,29.94,SW,217,3.6,6.3,77,0.08,,---,0.71,VWS V14.01,2013-05-24 03:12:00,
2013-05-23 21:13:00,39.9,33.3,29.94,SW,225,4.9,6.3,77,0.08,,---,0.71,VWS V14.01,2013-05-24 03:13:00,
2013-05-23 21:14:00,39.7,33.1,29.94,SSW,201,4.0,6.3,77,0.08,,---,0.71,VWS V14.01,2013-05-24 03:14:00,
2013-05-23 21:15:00,39.7,33.1,29.94,SSW,213,4.9,6.3,77,0.08,,---,0.71,VWS V14.01,2013-05-24 03:15:00,
2013-05-23 21:17:00,39.7,33.5,29.94,SSW,193,4.0,4.0,78,0.08,,---,0.71,VWS V14.01,2013-05-24 03:17:00,
2013-05-23 21:18:00,39.6,33.3,29.94,SSW,209,3.6,4.9,78,0.08,,---,0.71,VWS V14.01,2013-05-24 03:18:00,
2013-05-23 21:19:00,39.6,33.6,29.94,SSW,208,4.0,4.9,79,0.08,,---,0.00,VWS V14.01,2013-05-24 03:19:00,
2013-05-23 21:20:00,39.6,33.6,29.94,SSW,207,3.1,4.9,79,0.08,,---,0.71,VWS V14.01,2013-05-24 03:20:00,
2013-05-23 21:23:00,39.4,33.4,29.94,SSW,204,4.0,5.8,79,0.08,,---,0.71,VWS V14.01,2013-05-24 03:23:00,
2013-05-23 21:24:00,39.4,33.4,29.94,SSW,204,3.6,5.8,79,0.08,,---,0.00,VWS V14.01,2013-05-24 03:24:00,
2013-05-23 21:25:00,39.4,33.4,29.94,SSW,204,3.1,5.8,79,0.08,,---,0.71,VWS V14.01,2013-05-24 03:25:00,
2013-05-23 21:28:00,39.4,33.4,29.94,South,189,2.2,5.8,79,0.08,,---,0.71,VWS V14.01,2013-05-24 03:28:00,
2013-05-23 21:29:00,39.4,33.4,29.94,South,189,0.0,5.8,79,0.08,,---,0.71,VWS V14.01,2013-05-24 03:29:00,
2013-05-23 21:30:00,39.2,33.2,29.94,South,189,0.0,5.8,79,0.08,,---,0.71,VWS V14.01,2013-05-24 03:30:00,
2013-05-23 21:34:00,39.2,33.2,29.94,South,175,3.1,3.1,79,0.08,,---,0.71,VWS V14.01,2013-05-24 03:34:00,
2013-05-23 21:35:00,39.2,33.2,29.94,South,181,3.1,3.1,79,0.08,,---,0.71,VWS V14.01,2013-05-24 03:35:00,
2013-05-23 21:36:00,39.2,33.6,29.94,South,179,3.6,3.6,80,0.08,,---,0.71,VWS V14.01,2013-05-24 03:36:00,
2013-05-23 21:39:00,39.4,34.0,29.94,South,191,3.6,4.0,81,0.08,,---,0.71,VWS V14.01,2013-05-24 03:39:00,
2013-05-23 21:40:00,39.4,34.0,29.94,SSW,199,3.6,4.0,81,0.12,,---,0.75,VWS V14.01,2013-05-24 03:40:00,
2013-05-23 21:41:00,39.4,34.0,29.94,South,190,2.7,4.9,81,0.12,,---,0.75,VWS V14.01,2013-05-24 03:41:00,
2013-05-23 21:44:00,39.4,34.3,29.94,SSW,199,3.1,4.9,82,0.12,,---,0.75,VWS V14.01,2013-05-24 03:44:00,
2013-05-23 21:45:00,39.4,34.3,29.94,SSW,197,4.0,4.9,82,0.12,,---,0.75,VWS V14.01,2013-05-24 03:45:00,
2013-05-23 21:46:00,39.4,34.3,29.94,SSW,199,4.0,5.4,82,0.12,,---,0.75,VWS V14.01,2013-05-24 03:46:00,
2013-05-23 21:49:00,39.4,34.3,29.94,South,182,3.6,6.3,82,0.12,,---,0.75,VWS V14.01,2013-05-24 03:49:00,
2013-05-23 21:50:00,39.4,34.3,29.94,SSW,192,4.0,6.3,82,0.12,,---,0.75,VWS V14.01,2013-05-24 03:50:00,
2013-05-23 21:52:00,39.4,34.3,29.94,SSW,194,4.0,6.3,82,0.12,,---,0.75,VWS V14.01,2013-05-24 03:52:00,
2013-05-23 21:54:00,39.4,34.7,29.94,South,188,3.1,6.3,83,0.12,,---,0.75,VWS V14.01,2013-05-24 03:54:00,
2013-05-23 21:55:00,39.4,34.7,29.94,SSW,196,4.0,6.3,83,0.12,,---,0.75,VWS V14.01,2013-05-24 03:55:00,
2013-05-23 21:57:00,39.4,34.7,29.94,South,186,3.1,6.3,83,0.12,,---,0.75,VWS V14.01,2013-05-24 03:57:00,
2013-05-23 21:59:00,39.4,34.7,29.94,SSW,198,2.7,6.3,83,0.12,,---,0.75,VWS V14.01,2013-05-24 03:59:00,
2013-05-23 22:00:00,39.2,34.5,29.94,South,187,2.7,6.3,83,0.12,,---,0.75,VWS V14.01,2013-05-24 04:00:00,
2013-05-23 22:01:00,39.2,34.5,29.94,SSW,197,3.6,4.9,83,0.08,,---,0.00,VWS V14.01,2013-05-24 04:01:00,
2013-05-23 22:06:00,39.2,34.5,29.94,SSW,192,2.2,4.9,83,0.08,,---,0.75,VWS V14.01,2013-05-24 04:06:00,
2013-05-23 22:11:00,39.2,34.5,29.94,SSW,192,2.7,4.9,83,0.08,,---,0.75,VWS V14.01,2013-05-24 04:11:00,
2013-05-23 22:16:00,39.2,34.5,29.94,SSW,192,0.0,0.0,83,0.04,,---,0.75,VWS V14.01,2013-05-24 04:16:00,
2013-05-23 22:17:00,39.2,34.5,29.94,SSW,192,0.0,0.0,83,0.04,,---,0.75,VWS V14.01,2013-05-24 04:17:00,
2013-05-23 22:21:00,39.2,34.5,29.94,SSW,193,2.7,3.6,83,0.04,,---,0.75,VWS V14.01,2013-05-24 04:21:00,
2013-05-23 22:22:00,39.2,34.5,29.94,SSW,193,2.2,3.6,83,0.04,,---,0.75,VWS V14.01,2013-05-24 04:22:00,
2013-05-23 22:26:00,39.2,34.8,29.94,SSW,198,2.2,3.6,84,0.04,,---,0.75,VWS V14.01,2013-05-24 04:26:00,
2013-05-23 22:27:00,39.2,34.8,29.94,SSW,198,2.7,3.6,84,0.04,,---,0.75,VWS V14.01,2013-05-24 04:27:00,
2013-05-23 22:31:00,39.2,35.1,29.94,SSW,198,2.2,3.6,85,0.04,,---,0.75,VWS V14.01,2013-05-24 04:31:00,
2013-05-23 22:32:00,39.2,35.1,29.94,SSW,198,2.2,3.6,85,0.04,,---,0.75,VWS V14.01,2013-05-24 04:32:00,
2013-05-23 22:36:00,39.4,35.2,29.94,SSW,198,0.0,3.6,85,0.04,,---,0.75,VWS V14.01,2013-05-24 04:36:00,
2013-05-23 22:37:00,39.4,35.2,29.94,SSW,198,0.0,3.6,85,0.04,,---,0.75,VWS V14.01,2013-05-24 04:37:00,
2013-05-23 22:38:00,39.4,35.2,29.94,SSW,198,0.0,3.6,85,0.04,,---,0.00,VWS V14.01,2013-05-24 04:38:00,
2013-05-23 22:41:00,39.4,35.2,29.94,SSW,198,2.7,3.6,85,0.04,,---,0.75,VWS V14.01,2013-05-24 04:41:00,
2013-05-23 22:42:00,39.4,35.2,29.94,SSW,198,2.7,3.6,85,0.04,,---,0.75,VWS V14.01,2013-05-24 04:42:00,
2013-05-23 22:43:00,39.4,35.2,29.94,South,187,2.7,3.6,85,0.04,,---,0.75,VWS V14.01,2013-05-24 04:43:00,
2013-05-23 22:44:00,39.4,35.2,29.94,SSW,192,3.1,3.6,85,0.04,,---,0.75,VWS V14.01,2013-05-24 04:44:00,
2013-05-23 22:47:00,39.6,35.7,29.94,SSW,193,3.1,3.6,86,0.00,,---,0.75,VWS V14.01,2013-05-24 04:47:00,
2013-05-23 22:48:00,39.6,35.7,29.94,SSW,192,3.6,3.6,86,0.00,,---,0.75,VWS V14.01,2013-05-24 04:48:00,
2013-05-23 22:49:00,39.6,35.7,29.94,SSW,198,3.6,3.6,86,0.00,,---,0.75,VWS V14.01,2013-05-24 04:49:00,
2013-05-23 22:52:00,39.6,35.7,29.94,SSW,194,2.7,4.0,86,0.00,,---,0.75,VWS V14.01,2013-05-24 04:52:00,
2013-05-23 22:53:00,39.6,35.7,29.94,South,186,4.0,4.5,86,0.00,,---,0.75,VWS V14.01,2013-05-24 04:53:00,
2013-05-23 22:54:00,39.7,35.9,29.94,SSW,201,2.7,5.4,86,0.00,,---,0.75,VWS V14.01,2013-05-24 04:54:00,
2013-05-23 22:57:00,39.7,35.9,29.94,SSW,208,5.8,5.8,86,0.00,,---,0.00,VWS V14.01,2013-05-24 04:57:00,
2013-05-23 22:58:00,39.7,35.9,29.94,SSW,203,3.6,5.8,86,0.00,,---,0.75,VWS V14.01,2013-05-24 04:58:00,
2013-05-23 22:59:00,39.7,35.6,29.94,SSW,199,3.6,5.8,85,0.00,,---,0.75,VWS V14.01,2013-05-24 04:59:00,
2013-05-23 23:02:00,39.7,35.6,29.94,SSW,194,2.7,3.1,85,0.00,,---,0.75,VWS V14.01,2013-05-24 05:02:00,
2013-05-23 23:03:00,39.7,35.6,29.94,SSW,196,4.0,4.0,85,0.00,,---,0.75,VWS V14.01,2013-05-24 05:03:00,
2013-05-23 23:04:00,39.7,35.6,29.94,SSW,196,3.1,4.0,85,0.00,,---,0.00,VWS V14.01,2013-05-24 05:04:00,
2013-05-23 23:07:00,39.7,35.3,29.94,South,188,2.7,4.0,84,0.00,,---,0.75,VWS V14.01,2013-05-24 05:07:00,
2013-05-23 23:08:00,39.7,35.3,29.94,South,188,0.0,4.0,84,0.00,,---,0.75,VWS V14.01,2013-05-24 05:08:00,
2013-05-23 23:10:00,39.7,35.3,29.94,South,188,2.2,4.0,84,0.00,,---,0.75,VWS V14.01,2013-05-24 05:10:00,
2013-05-23 23:13:00,39.6,35.1,29.94,South,183,0.0,4.0,84,0.00,,---,0.00,VWS V14.01,2013-05-24 05:13:00,
2013-05-23 23:14:00,39.6,35.1,29.94,South,183,0.0,4.0,84,0.00,,---,0.75,VWS V14.01,2013-05-24 05:14:00,
2013-05-23 23:15:00,39.6,35.1,29.94,South,183,0.0,4.0,84,0.04,,---,0.79,VWS V14.01,2013-05-24 05:15:00,
2013-05-23 23:18:00,39.6,35.1,29.91,South,181,3.1,3.1,84,0.04,,---,0.79,VWS V14.01,2013-05-24 05:18:00,
2013-05-23 23:19:00,39.6,35.4,29.91,South,186,4.0,4.0,85,0.04,,---,0.00,VWS V14.01,2013-05-24 05:19:00,
2013-05-23 23:20:00,39.4,35.2,29.91,SSW,195,3.1,4.0,85,0.04,,---,0.79,VWS V14.01,2013-05-24 05:20:00,
2013-05-23 23:24:00,39.4,35.2,29.91,SSW,195,2.7,4.0,85,0.04,,---,0.79,VWS V14.01,2013-05-24 05:24:00,
2013-05-23 23:26:00,39.4,35.2,29.91,SSW,195,2.7,4.0,85,0.04,,---,0.00,VWS V14.01,2013-05-24 05:26:00,
2013-05-23 23:29:00,39.2,35.1,29.91,SSW,195,2.7,4.0,85,0.04,,---,0.79,VWS V14.01,2013-05-24 05:29:00,
2013-05-23 23:31:00,39.2,35.1,29.91,SSW,193,4.0,4.0,85,0.04,,---,0.79,VWS V14.01,2013-05-24 05:31:00,
2013-05-23 23:34:00,39.0,34.9,29.91,SSW,205,4.0,4.9,85,0.04,,---,0.79,VWS V14.01,2013-05-24 05:34:00,
2013-05-23 23:36:00,39.0,35.2,29.91,SSW,207,2.7,4.9,86,0.04,,---,0.79,VWS V14.01,2013-05-24 05:36:00,
2013-05-23 23:39:00,39.0,35.2,29.91,SSW,208,2.7,4.9,86,0.04,,---,0.79,VWS V14.01,2013-05-24 05:39:00,
2013-05-23 23:40:00,38.8,35.0,29.91,SSW,208,2.7,4.9,86,0.04,,---,0.00,VWS V14.01,2013-05-24 05:40:00,
2013-05-23 23:41:00,38.8,35.0,29.91,SSW,204,3.6,4.9,86,0.04,,---,0.79,VWS V14.01,2013-05-24 05:41:00,
2013-05-23 23:44:00,38.8,35.3,29.91,SSW,212,5.8,5.8,87,0.04,,---,0.79,VWS V14.01,2013-05-24 05:44:00,
2013-05-23 23:45:00,38.7,35.1,29.91,SSW,205,4.9,5.8,87,0.04,,---,0.00,VWS V14.01,2013-05-24 05:45:00,
2013-05-23 23:46:00,38.7,35.1,29.88,SSW,209,4.0,4.9,87,0.04,,---,0.79,VWS V14.01,2013-05-24 05:46:00,
2013-05-23 23:49:00,38.5,35.0,29.88,SSW,207,3.1,4.9,87,0.04,,---,0.79,VWS V14.01,2013-05-24 05:49:00,
2013-05-23 23:50:00,38.5,35.0,29.88,SSW,207,3.1,4.9,87,0.04,,---,0.00,VWS V14.01,2013-05-24 05:50:00,
2013-05-23 23:52:00,38.5,35.0,29.88,SSW,207,2.7,4.9,87,0.04,,---,0.00,VWS V14.01,2013-05-24 05:52:00,
2013-05-23 23:54:00,38.5,35.0,29.88,SSW,198,2.7,4.9,87,0.04,,---,0.79,VWS V14.01,2013-05-24 05:54:00,
2013-05-23 23:55:00,38.5,35.0,29.88,SSW,198,2.7,4.9,87,0.04,,---,0.00,VWS V14.01,2013-05-24 05:55:00,
2013-05-23 23:56:00,38.3,34.8,29.88,SSW,198,0.0,4.9,87,0.04,,---,0.79,VWS V14.01,2013-05-24 05:56:00,
2013-05-23 23:57:00,38.3,34.8,29.88,SSW,198,0.0,4.9,87,0.04,,---,0.79,VWS V14.01,2013-05-24 05:57:00,
2013-05-23 23:59:00,38.3,34.8,29.88,SSW,198,3.6,4.9,87,0.04,,---,0.79,VWS V14.01,2013-05-24 05:59:00,